<?xml version="1.0" encoding="UTF-8" standalone="no" ?>
<gpx xmlns="http://www.topografix.com/GPX/1/1" xmlns:xsi="http://www.w3.org/2001/XMLSchema-instance" xsi:schemaLocation="http://www.topografix.com/GPX/1/1 http://www.topografix.com/GPX/1/1/gpx.xsd" version="1.1" creator="VisuGPX - https://www.visugpx.com">
  <metadata>
    <name>Trotting plus que balade</name>
    <desc><![CDATA[un peu après, où on voit mon demi-tour (face à des arbres suffisamment serrés pour ne plus voir de chemins), en direction du GR, je me suis retrouvée sur un  chemin entouré de 2 champs bien délimités par des fils ! au bout de ce petit chemin, rubalise.... rien avant et après pour le signaler...]]></desc>
  </metadata>
  <trk>
    <name><![CDATA[Untitled]]></name>
    <trkseg>
      <trkpt lat="48.7032" lon="1.75346">
        <ele>180.19999694824</ele>
        <time>2014-06-06T09:50:03.000Z</time>
      </trkpt>
      <trkpt lat="48.70327" lon="1.75367">
        <ele>180.39999389648</ele>
        <time>2014-06-06T09:50:05.000Z</time>
      </trkpt>
      <trkpt lat="48.70322" lon="1.75358">
        <ele>180.19999694824</ele>
        <time>2014-06-06T09:50:11.000Z</time>
      </trkpt>
      <trkpt lat="48.70317" lon="1.75346">
        <ele>180.19999694824</ele>
        <time>2014-06-06T09:50:16.000Z</time>
      </trkpt>
      <trkpt lat="48.70312" lon="1.75342">
        <ele>180</ele>
        <time>2014-06-06T09:50:20.000Z</time>
      </trkpt>
      <trkpt lat="48.70308" lon="1.75337">
        <ele>180</ele>
        <time>2014-06-06T09:50:24.000Z</time>
      </trkpt>
      <trkpt lat="48.70305" lon="1.75332">
        <ele>179.80000305176</ele>
        <time>2014-06-06T09:50:34.000Z</time>
      </trkpt>
      <trkpt lat="48.70309" lon="1.75335">
        <ele>180</ele>
        <time>2014-06-06T09:50:39.000Z</time>
      </trkpt>
      <trkpt lat="48.7031" lon="1.75335">
        <ele>180</ele>
        <time>2014-06-06T09:50:45.000Z</time>
      </trkpt>
      <trkpt lat="48.70309" lon="1.75334">
        <ele>180</ele>
        <time>2014-06-06T09:50:47.000Z</time>
      </trkpt>
      <trkpt lat="48.70311" lon="1.75332">
        <ele>180</ele>
        <time>2014-06-06T09:51:10.000Z</time>
      </trkpt>
      <trkpt lat="48.70314" lon="1.75327">
        <ele>180</ele>
        <time>2014-06-06T09:51:21.000Z</time>
      </trkpt>
      <trkpt lat="48.70314" lon="1.75331">
        <ele>180</ele>
        <time>2014-06-06T09:51:26.000Z</time>
      </trkpt>
      <trkpt lat="48.70313" lon="1.75328">
        <ele>180</ele>
        <time>2014-06-06T09:51:29.000Z</time>
      </trkpt>
      <trkpt lat="48.70312" lon="1.75329">
        <ele>180</ele>
        <time>2014-06-06T09:51:32.000Z</time>
      </trkpt>
      <trkpt lat="48.70312" lon="1.75328">
        <ele>180</ele>
        <time>2014-06-06T09:51:33.000Z</time>
      </trkpt>
      <trkpt lat="48.70305" lon="1.75319">
        <ele>179.80000305176</ele>
        <time>2014-06-06T09:52:39.000Z</time>
      </trkpt>
      <trkpt lat="48.70306" lon="1.75325">
        <ele>179.80000305176</ele>
        <time>2014-06-06T09:52:42.000Z</time>
      </trkpt>
      <trkpt lat="48.70306" lon="1.75326">
        <ele>179.80000305176</ele>
        <time>2014-06-06T09:52:46.000Z</time>
      </trkpt>
      <trkpt lat="48.70289" lon="1.75295">
        <ele>179.80000305176</ele>
        <time>2014-06-06T09:53:42.000Z</time>
      </trkpt>
      <trkpt lat="48.70288" lon="1.75293">
        <ele>179.80000305176</ele>
        <time>2014-06-06T09:53:45.000Z</time>
      </trkpt>
      <trkpt lat="48.70286" lon="1.7529">
        <ele>179.80000305176</ele>
        <time>2014-06-06T09:53:50.000Z</time>
      </trkpt>
      <trkpt lat="48.7028" lon="1.75288">
        <ele>179.60000610352</ele>
        <time>2014-06-06T09:53:54.000Z</time>
      </trkpt>
      <trkpt lat="48.70272" lon="1.75283">
        <ele>179.60000610352</ele>
        <time>2014-06-06T09:54:00.000Z</time>
      </trkpt>
      <trkpt lat="48.70271" lon="1.75281">
        <ele>179.39999389648</ele>
        <time>2014-06-06T09:54:01.000Z</time>
      </trkpt>
      <trkpt lat="48.70264" lon="1.75275">
        <ele>179.19999694824</ele>
        <time>2014-06-06T09:54:06.000Z</time>
      </trkpt>
      <trkpt lat="48.70258" lon="1.75272">
        <ele>179</ele>
        <time>2014-06-06T09:54:11.000Z</time>
      </trkpt>
      <trkpt lat="48.70251" lon="1.75266">
        <ele>178.80000305176</ele>
        <time>2014-06-06T09:54:16.000Z</time>
      </trkpt>
      <trkpt lat="48.70244" lon="1.75258">
        <ele>178.60000610352</ele>
        <time>2014-06-06T09:54:21.000Z</time>
      </trkpt>
      <trkpt lat="48.70236" lon="1.75251">
        <ele>178.19999694824</ele>
        <time>2014-06-06T09:54:26.000Z</time>
      </trkpt>
      <trkpt lat="48.7023" lon="1.75249">
        <ele>178</ele>
        <time>2014-06-06T09:54:32.000Z</time>
      </trkpt>
      <trkpt lat="48.70229" lon="1.75248">
        <ele>177.80000305176</ele>
        <time>2014-06-06T09:54:33.000Z</time>
      </trkpt>
      <trkpt lat="48.70222" lon="1.75243">
        <ele>177.60000610352</ele>
        <time>2014-06-06T09:54:38.000Z</time>
      </trkpt>
      <trkpt lat="48.70217" lon="1.75242">
        <ele>177.39999389648</ele>
        <time>2014-06-06T09:54:44.000Z</time>
      </trkpt>
      <trkpt lat="48.70214" lon="1.75242">
        <ele>177.19999694824</ele>
        <time>2014-06-06T09:54:46.000Z</time>
      </trkpt>
      <trkpt lat="48.70211" lon="1.75245">
        <ele>177</ele>
        <time>2014-06-06T09:54:49.000Z</time>
      </trkpt>
      <trkpt lat="48.702" lon="1.75242">
        <ele>176.60000610352</ele>
        <time>2014-06-06T09:54:55.000Z</time>
      </trkpt>
      <trkpt lat="48.70199" lon="1.7524">
        <ele>176.60000610352</ele>
        <time>2014-06-06T09:54:56.000Z</time>
      </trkpt>
      <trkpt lat="48.70197" lon="1.75236">
        <ele>176.60000610352</ele>
        <time>2014-06-06T09:54:58.000Z</time>
      </trkpt>
      <trkpt lat="48.70192" lon="1.75216">
        <ele>176.19999694824</ele>
        <time>2014-06-06T09:55:04.000Z</time>
      </trkpt>
      <trkpt lat="48.70188" lon="1.752">
        <ele>176</ele>
        <time>2014-06-06T09:55:09.000Z</time>
      </trkpt>
      <trkpt lat="48.70191" lon="1.75196">
        <ele>176.19999694824</ele>
        <time>2014-06-06T09:55:12.000Z</time>
      </trkpt>
      <trkpt lat="48.70199" lon="1.75185">
        <ele>176.60000610352</ele>
        <time>2014-06-06T09:55:20.000Z</time>
      </trkpt>
      <trkpt lat="48.70203" lon="1.75177">
        <ele>176.80000305176</ele>
        <time>2014-06-06T09:55:24.000Z</time>
      </trkpt>
      <trkpt lat="48.70209" lon="1.75167">
        <ele>177</ele>
        <time>2014-06-06T09:55:29.000Z</time>
      </trkpt>
      <trkpt lat="48.70208" lon="1.75155">
        <ele>176.80000305176</ele>
        <time>2014-06-06T09:55:34.000Z</time>
      </trkpt>
      <trkpt lat="48.70203" lon="1.75125">
        <ele>177.19999694824</ele>
        <time>2014-06-06T09:55:40.000Z</time>
      </trkpt>
      <trkpt lat="48.70204" lon="1.75105">
        <ele>177.80000305176</ele>
        <time>2014-06-06T09:55:44.000Z</time>
      </trkpt>
      <trkpt lat="48.70209" lon="1.75087">
        <ele>178.19999694824</ele>
        <time>2014-06-06T09:55:48.000Z</time>
      </trkpt>
      <trkpt lat="48.70219" lon="1.7507">
        <ele>178.39999389648</ele>
        <time>2014-06-06T09:55:52.000Z</time>
      </trkpt>
      <trkpt lat="48.70226" lon="1.75044">
        <ele>178.39999389648</ele>
        <time>2014-06-06T09:55:57.000Z</time>
      </trkpt>
      <trkpt lat="48.70226" lon="1.75033">
        <ele>178.39999389648</ele>
        <time>2014-06-06T09:55:59.000Z</time>
      </trkpt>
      <trkpt lat="48.70222" lon="1.75018">
        <ele>178.39999389648</ele>
        <time>2014-06-06T09:56:01.000Z</time>
      </trkpt>
      <trkpt lat="48.70235" lon="1.74989">
        <ele>177.39999389648</ele>
        <time>2014-06-06T09:56:07.000Z</time>
      </trkpt>
      <trkpt lat="48.70238" lon="1.74968">
        <ele>177</ele>
        <time>2014-06-06T09:56:11.000Z</time>
      </trkpt>
      <trkpt lat="48.7024" lon="1.74929">
        <ele>175.39999389648</ele>
        <time>2014-06-06T09:56:16.000Z</time>
      </trkpt>
      <trkpt lat="48.70241" lon="1.74901">
        <ele>174</ele>
        <time>2014-06-06T09:56:21.000Z</time>
      </trkpt>
      <trkpt lat="48.70242" lon="1.74889">
        <ele>174</ele>
        <time>2014-06-06T09:56:23.000Z</time>
      </trkpt>
      <trkpt lat="48.70245" lon="1.7486">
        <ele>173.80000305176</ele>
        <time>2014-06-06T09:56:28.000Z</time>
      </trkpt>
      <trkpt lat="48.70253" lon="1.74838">
        <ele>173.60000610352</ele>
        <time>2014-06-06T09:56:32.000Z</time>
      </trkpt>
      <trkpt lat="48.70254" lon="1.74832">
        <ele>173.60000610352</ele>
        <time>2014-06-06T09:56:33.000Z</time>
      </trkpt>
      <trkpt lat="48.70258" lon="1.74801">
        <ele>173.39999389648</ele>
        <time>2014-06-06T09:56:39.000Z</time>
      </trkpt>
      <trkpt lat="48.70253" lon="1.7478">
        <ele>173.19999694824</ele>
        <time>2014-06-06T09:56:41.000Z</time>
      </trkpt>
      <trkpt lat="48.70259" lon="1.74757">
        <ele>172.19999694824</ele>
        <time>2014-06-06T09:56:46.000Z</time>
      </trkpt>
      <trkpt lat="48.70263" lon="1.7473">
        <ele>171.19999694824</ele>
        <time>2014-06-06T09:56:51.000Z</time>
      </trkpt>
      <trkpt lat="48.70266" lon="1.74704">
        <ele>170</ele>
        <time>2014-06-06T09:56:55.000Z</time>
      </trkpt>
      <trkpt lat="48.70268" lon="1.74679">
        <ele>169</ele>
        <time>2014-06-06T09:56:59.000Z</time>
      </trkpt>
      <trkpt lat="48.70275" lon="1.74655">
        <ele>168</ele>
        <time>2014-06-06T09:57:04.000Z</time>
      </trkpt>
      <trkpt lat="48.70294" lon="1.74653">
        <ele>168.39999389648</ele>
        <time>2014-06-06T09:57:08.000Z</time>
      </trkpt>
      <trkpt lat="48.70303" lon="1.74647">
        <ele>168.39999389648</ele>
        <time>2014-06-06T09:57:10.000Z</time>
      </trkpt>
      <trkpt lat="48.70307" lon="1.74636">
        <ele>168.60000610352</ele>
        <time>2014-06-06T09:57:13.000Z</time>
      </trkpt>
      <trkpt lat="48.70303" lon="1.74611">
        <ele>169</ele>
        <time>2014-06-06T09:57:18.000Z</time>
      </trkpt>
      <trkpt lat="48.70287" lon="1.74575">
        <ele>169.39999389648</ele>
        <time>2014-06-06T09:57:23.000Z</time>
      </trkpt>
      <trkpt lat="48.70281" lon="1.74563">
        <ele>169.60000610352</ele>
        <time>2014-06-06T09:57:25.000Z</time>
      </trkpt>
      <trkpt lat="48.70276" lon="1.74546">
        <ele>170</ele>
        <time>2014-06-06T09:57:29.000Z</time>
      </trkpt>
      <trkpt lat="48.70276" lon="1.74538">
        <ele>170.39999389648</ele>
        <time>2014-06-06T09:57:31.000Z</time>
      </trkpt>
      <trkpt lat="48.70271" lon="1.74518">
        <ele>171</ele>
        <time>2014-06-06T09:57:36.000Z</time>
      </trkpt>
      <trkpt lat="48.70256" lon="1.74487">
        <ele>171.80000305176</ele>
        <time>2014-06-06T09:57:41.000Z</time>
      </trkpt>
      <trkpt lat="48.70254" lon="1.74481">
        <ele>172</ele>
        <time>2014-06-06T09:57:42.000Z</time>
      </trkpt>
      <trkpt lat="48.70255" lon="1.74469">
        <ele>172.39999389648</ele>
        <time>2014-06-06T09:57:44.000Z</time>
      </trkpt>
      <trkpt lat="48.70262" lon="1.74456">
        <ele>173</ele>
        <time>2014-06-06T09:57:48.000Z</time>
      </trkpt>
      <trkpt lat="48.70265" lon="1.74456">
        <ele>173</ele>
        <time>2014-06-06T09:57:49.000Z</time>
      </trkpt>
      <trkpt lat="48.70269" lon="1.74439">
        <ele>173.80000305176</ele>
        <time>2014-06-06T09:57:55.000Z</time>
      </trkpt>
      <trkpt lat="48.70266" lon="1.74422">
        <ele>174.19999694824</ele>
        <time>2014-06-06T09:57:58.000Z</time>
      </trkpt>
      <trkpt lat="48.70255" lon="1.74386">
        <ele>175.19999694824</ele>
        <time>2014-06-06T09:58:04.000Z</time>
      </trkpt>
      <trkpt lat="48.7025" lon="1.74373">
        <ele>175.60000610352</ele>
        <time>2014-06-06T09:58:06.000Z</time>
      </trkpt>
      <trkpt lat="48.70248" lon="1.74361">
        <ele>176</ele>
        <time>2014-06-06T09:58:08.000Z</time>
      </trkpt>
      <trkpt lat="48.70243" lon="1.74342">
        <ele>176.80000305176</ele>
        <time>2014-06-06T09:58:10.000Z</time>
      </trkpt>
      <trkpt lat="48.70242" lon="1.74327">
        <ele>177.39999389648</ele>
        <time>2014-06-06T09:58:13.000Z</time>
      </trkpt>
      <trkpt lat="48.70251" lon="1.74303">
        <ele>178.60000610352</ele>
        <time>2014-06-06T09:58:19.000Z</time>
      </trkpt>
      <trkpt lat="48.70248" lon="1.74285">
        <ele>178.60000610352</ele>
        <time>2014-06-06T09:58:23.000Z</time>
      </trkpt>
      <trkpt lat="48.70238" lon="1.74255">
        <ele>178.60000610352</ele>
        <time>2014-06-06T09:58:29.000Z</time>
      </trkpt>
      <trkpt lat="48.70232" lon="1.74239">
        <ele>178.60000610352</ele>
        <time>2014-06-06T09:58:33.000Z</time>
      </trkpt>
      <trkpt lat="48.70226" lon="1.74227">
        <ele>178.60000610352</ele>
        <time>2014-06-06T09:58:37.000Z</time>
      </trkpt>
      <trkpt lat="48.70216" lon="1.74219">
        <ele>178.39999389648</ele>
        <time>2014-06-06T09:58:41.000Z</time>
      </trkpt>
      <trkpt lat="48.7021" lon="1.74213">
        <ele>178.39999389648</ele>
        <time>2014-06-06T09:58:43.000Z</time>
      </trkpt>
      <trkpt lat="48.702" lon="1.74186">
        <ele>178.80000305176</ele>
        <time>2014-06-06T09:58:49.000Z</time>
      </trkpt>
      <trkpt lat="48.70186" lon="1.74155">
        <ele>179</ele>
        <time>2014-06-06T09:58:54.000Z</time>
      </trkpt>
      <trkpt lat="48.70182" lon="1.74138">
        <ele>179</ele>
        <time>2014-06-06T09:58:57.000Z</time>
      </trkpt>
      <trkpt lat="48.70176" lon="1.74121">
        <ele>178.80000305176</ele>
        <time>2014-06-06T09:59:00.000Z</time>
      </trkpt>
      <trkpt lat="48.70171" lon="1.74099">
        <ele>178.80000305176</ele>
        <time>2014-06-06T09:59:04.000Z</time>
      </trkpt>
      <trkpt lat="48.70176" lon="1.7408">
        <ele>178.80000305176</ele>
        <time>2014-06-06T09:59:09.000Z</time>
      </trkpt>
      <trkpt lat="48.70177" lon="1.74076">
        <ele>178.80000305176</ele>
        <time>2014-06-06T09:59:10.000Z</time>
      </trkpt>
      <trkpt lat="48.70165" lon="1.74045">
        <ele>178.80000305176</ele>
        <time>2014-06-06T09:59:15.000Z</time>
      </trkpt>
      <trkpt lat="48.70164" lon="1.7404">
        <ele>178.80000305176</ele>
        <time>2014-06-06T09:59:16.000Z</time>
      </trkpt>
      <trkpt lat="48.70175" lon="1.74024">
        <ele>178.80000305176</ele>
        <time>2014-06-06T09:59:21.000Z</time>
      </trkpt>
      <trkpt lat="48.70184" lon="1.73998">
        <ele>179</ele>
        <time>2014-06-06T09:59:26.000Z</time>
      </trkpt>
      <trkpt lat="48.70192" lon="1.73983">
        <ele>179</ele>
        <time>2014-06-06T09:59:29.000Z</time>
      </trkpt>
      <trkpt lat="48.70203" lon="1.73969">
        <ele>179.19999694824</ele>
        <time>2014-06-06T09:59:33.000Z</time>
      </trkpt>
      <trkpt lat="48.70221" lon="1.73949">
        <ele>179.39999389648</ele>
        <time>2014-06-06T09:59:38.000Z</time>
      </trkpt>
      <trkpt lat="48.70227" lon="1.73943">
        <ele>179.39999389648</ele>
        <time>2014-06-06T09:59:40.000Z</time>
      </trkpt>
      <trkpt lat="48.70241" lon="1.73928">
        <ele>178.80000305176</ele>
        <time>2014-06-06T09:59:46.000Z</time>
      </trkpt>
      <trkpt lat="48.70246" lon="1.73925">
        <ele>178.80000305176</ele>
        <time>2014-06-06T09:59:51.000Z</time>
      </trkpt>
      <trkpt lat="48.70247" lon="1.73919">
        <ele>178.60000610352</ele>
        <time>2014-06-06T09:59:55.000Z</time>
      </trkpt>
      <trkpt lat="48.70247" lon="1.73917">
        <ele>178.39999389648</ele>
        <time>2014-06-06T09:59:56.000Z</time>
      </trkpt>
      <trkpt lat="48.70248" lon="1.73906">
        <ele>178</ele>
        <time>2014-06-06T10:00:02.000Z</time>
      </trkpt>
      <trkpt lat="48.70248" lon="1.73905">
        <ele>178</ele>
        <time>2014-06-06T10:00:03.000Z</time>
      </trkpt>
      <trkpt lat="48.70241" lon="1.73898">
        <ele>178</ele>
        <time>2014-06-06T10:00:07.000Z</time>
      </trkpt>
      <trkpt lat="48.70234" lon="1.73893">
        <ele>178</ele>
        <time>2014-06-06T10:00:14.000Z</time>
      </trkpt>
      <trkpt lat="48.70226" lon="1.73885">
        <ele>178</ele>
        <time>2014-06-06T10:00:22.000Z</time>
      </trkpt>
      <trkpt lat="48.7022" lon="1.73881">
        <ele>178</ele>
        <time>2014-06-06T10:00:26.000Z</time>
      </trkpt>
      <trkpt lat="48.70214" lon="1.73875">
        <ele>178</ele>
        <time>2014-06-06T10:00:31.000Z</time>
      </trkpt>
      <trkpt lat="48.70206" lon="1.73869">
        <ele>178</ele>
        <time>2014-06-06T10:00:37.000Z</time>
      </trkpt>
      <trkpt lat="48.70204" lon="1.73868">
        <ele>178</ele>
        <time>2014-06-06T10:00:38.000Z</time>
      </trkpt>
      <trkpt lat="48.70199" lon="1.73864">
        <ele>178</ele>
        <time>2014-06-06T10:00:41.000Z</time>
      </trkpt>
      <trkpt lat="48.70189" lon="1.73859">
        <ele>178</ele>
        <time>2014-06-06T10:00:47.000Z</time>
      </trkpt>
      <trkpt lat="48.70184" lon="1.73852">
        <ele>178</ele>
        <time>2014-06-06T10:00:52.000Z</time>
      </trkpt>
      <trkpt lat="48.70183" lon="1.73851">
        <ele>178</ele>
        <time>2014-06-06T10:00:53.000Z</time>
      </trkpt>
      <trkpt lat="48.70179" lon="1.73843">
        <ele>178</ele>
        <time>2014-06-06T10:00:58.000Z</time>
      </trkpt>
      <trkpt lat="48.70172" lon="1.73834">
        <ele>178</ele>
        <time>2014-06-06T10:01:03.000Z</time>
      </trkpt>
      <trkpt lat="48.7017" lon="1.73828">
        <ele>178</ele>
        <time>2014-06-06T10:01:08.000Z</time>
      </trkpt>
      <trkpt lat="48.70164" lon="1.73818">
        <ele>178</ele>
        <time>2014-06-06T10:01:13.000Z</time>
      </trkpt>
      <trkpt lat="48.70158" lon="1.7381">
        <ele>178</ele>
        <time>2014-06-06T10:01:19.000Z</time>
      </trkpt>
      <trkpt lat="48.70151" lon="1.73803">
        <ele>178</ele>
        <time>2014-06-06T10:01:25.000Z</time>
      </trkpt>
      <trkpt lat="48.70147" lon="1.73802">
        <ele>178</ele>
        <time>2014-06-06T10:01:28.000Z</time>
      </trkpt>
      <trkpt lat="48.70134" lon="1.73791">
        <ele>178</ele>
        <time>2014-06-06T10:01:33.000Z</time>
      </trkpt>
      <trkpt lat="48.70132" lon="1.7379">
        <ele>178</ele>
        <time>2014-06-06T10:01:37.000Z</time>
      </trkpt>
      <trkpt lat="48.7013" lon="1.73788">
        <ele>178</ele>
        <time>2014-06-06T10:01:41.000Z</time>
      </trkpt>
      <trkpt lat="48.70123" lon="1.73781">
        <ele>178</ele>
        <time>2014-06-06T10:01:47.000Z</time>
      </trkpt>
      <trkpt lat="48.70116" lon="1.73774">
        <ele>178</ele>
        <time>2014-06-06T10:01:54.000Z</time>
      </trkpt>
      <trkpt lat="48.7011" lon="1.73764">
        <ele>178</ele>
        <time>2014-06-06T10:02:01.000Z</time>
      </trkpt>
      <trkpt lat="48.70104" lon="1.73755">
        <ele>178</ele>
        <time>2014-06-06T10:02:06.000Z</time>
      </trkpt>
      <trkpt lat="48.70101" lon="1.73751">
        <ele>178</ele>
        <time>2014-06-06T10:02:10.000Z</time>
      </trkpt>
      <trkpt lat="48.70093" lon="1.73748">
        <ele>178</ele>
        <time>2014-06-06T10:02:16.000Z</time>
      </trkpt>
      <trkpt lat="48.70086" lon="1.73746">
        <ele>178</ele>
        <time>2014-06-06T10:02:23.000Z</time>
      </trkpt>
      <trkpt lat="48.70084" lon="1.73745">
        <ele>178</ele>
        <time>2014-06-06T10:02:24.000Z</time>
      </trkpt>
      <trkpt lat="48.70073" lon="1.73738">
        <ele>178</ele>
        <time>2014-06-06T10:02:31.000Z</time>
      </trkpt>
      <trkpt lat="48.70064" lon="1.73732">
        <ele>178</ele>
        <time>2014-06-06T10:02:38.000Z</time>
      </trkpt>
      <trkpt lat="48.70057" lon="1.7373">
        <ele>178</ele>
        <time>2014-06-06T10:02:43.000Z</time>
      </trkpt>
      <trkpt lat="48.70053" lon="1.73728">
        <ele>178.19999694824</ele>
        <time>2014-06-06T10:02:48.000Z</time>
      </trkpt>
      <trkpt lat="48.70051" lon="1.73727">
        <ele>178.19999694824</ele>
        <time>2014-06-06T10:02:49.000Z</time>
      </trkpt>
      <trkpt lat="48.70047" lon="1.73725">
        <ele>178.19999694824</ele>
        <time>2014-06-06T10:02:51.000Z</time>
      </trkpt>
      <trkpt lat="48.70039" lon="1.73722">
        <ele>178.19999694824</ele>
        <time>2014-06-06T10:02:58.000Z</time>
      </trkpt>
      <trkpt lat="48.70031" lon="1.73714">
        <ele>178.19999694824</ele>
        <time>2014-06-06T10:03:04.000Z</time>
      </trkpt>
      <trkpt lat="48.70025" lon="1.73707">
        <ele>178.39999389648</ele>
        <time>2014-06-06T10:03:09.000Z</time>
      </trkpt>
      <trkpt lat="48.70019" lon="1.73696">
        <ele>178.39999389648</ele>
        <time>2014-06-06T10:03:15.000Z</time>
      </trkpt>
      <trkpt lat="48.70012" lon="1.73682">
        <ele>178.39999389648</ele>
        <time>2014-06-06T10:03:23.000Z</time>
      </trkpt>
      <trkpt lat="48.70009" lon="1.73676">
        <ele>178.39999389648</ele>
        <time>2014-06-06T10:03:29.000Z</time>
      </trkpt>
      <trkpt lat="48.70005" lon="1.73668">
        <ele>178.39999389648</ele>
        <time>2014-06-06T10:03:34.000Z</time>
      </trkpt>
      <trkpt lat="48.69997" lon="1.73651">
        <ele>178.39999389648</ele>
        <time>2014-06-06T10:03:42.000Z</time>
      </trkpt>
      <trkpt lat="48.69995" lon="1.73647">
        <ele>178.39999389648</ele>
        <time>2014-06-06T10:03:44.000Z</time>
      </trkpt>
      <trkpt lat="48.69993" lon="1.73642">
        <ele>178.19999694824</ele>
        <time>2014-06-06T10:03:48.000Z</time>
      </trkpt>
      <trkpt lat="48.69989" lon="1.73638">
        <ele>178</ele>
        <time>2014-06-06T10:03:51.000Z</time>
      </trkpt>
      <trkpt lat="48.69985" lon="1.73628">
        <ele>177.80000305176</ele>
        <time>2014-06-06T10:03:57.000Z</time>
      </trkpt>
      <trkpt lat="48.69975" lon="1.73619">
        <ele>177.60000610352</ele>
        <time>2014-06-06T10:04:02.000Z</time>
      </trkpt>
      <trkpt lat="48.6997" lon="1.73612">
        <ele>177.19999694824</ele>
        <time>2014-06-06T10:04:07.000Z</time>
      </trkpt>
      <trkpt lat="48.6996" lon="1.73601">
        <ele>177</ele>
        <time>2014-06-06T10:04:13.000Z</time>
      </trkpt>
      <trkpt lat="48.69956" lon="1.73596">
        <ele>176.80000305176</ele>
        <time>2014-06-06T10:04:16.000Z</time>
      </trkpt>
      <trkpt lat="48.69951" lon="1.73585">
        <ele>176.60000610352</ele>
        <time>2014-06-06T10:04:23.000Z</time>
      </trkpt>
      <trkpt lat="48.69949" lon="1.73579">
        <ele>176.39999389648</ele>
        <time>2014-06-06T10:04:28.000Z</time>
      </trkpt>
      <trkpt lat="48.69945" lon="1.73573">
        <ele>176.19999694824</ele>
        <time>2014-06-06T10:04:33.000Z</time>
      </trkpt>
      <trkpt lat="48.6994" lon="1.73565">
        <ele>176</ele>
        <time>2014-06-06T10:04:39.000Z</time>
      </trkpt>
      <trkpt lat="48.6993" lon="1.73552">
        <ele>176.19999694824</ele>
        <time>2014-06-06T10:04:46.000Z</time>
      </trkpt>
      <trkpt lat="48.6993" lon="1.73551">
        <ele>176.19999694824</ele>
        <time>2014-06-06T10:04:47.000Z</time>
      </trkpt>
      <trkpt lat="48.69922" lon="1.73541">
        <ele>176.60000610352</ele>
        <time>2014-06-06T10:04:53.000Z</time>
      </trkpt>
      <trkpt lat="48.69913" lon="1.73531">
        <ele>176.80000305176</ele>
        <time>2014-06-06T10:05:00.000Z</time>
      </trkpt>
      <trkpt lat="48.69907" lon="1.73526">
        <ele>177</ele>
        <time>2014-06-06T10:05:07.000Z</time>
      </trkpt>
      <trkpt lat="48.69903" lon="1.73523">
        <ele>177.19999694824</ele>
        <time>2014-06-06T10:05:10.000Z</time>
      </trkpt>
      <trkpt lat="48.69893" lon="1.73516">
        <ele>177.60000610352</ele>
        <time>2014-06-06T10:05:16.000Z</time>
      </trkpt>
      <trkpt lat="48.69886" lon="1.73507">
        <ele>177.80000305176</ele>
        <time>2014-06-06T10:05:23.000Z</time>
      </trkpt>
      <trkpt lat="48.69881" lon="1.73492">
        <ele>178</ele>
        <time>2014-06-06T10:05:30.000Z</time>
      </trkpt>
      <trkpt lat="48.69874" lon="1.73477">
        <ele>178.19999694824</ele>
        <time>2014-06-06T10:05:35.000Z</time>
      </trkpt>
      <trkpt lat="48.69877" lon="1.73466">
        <ele>178.19999694824</ele>
        <time>2014-06-06T10:05:39.000Z</time>
      </trkpt>
      <trkpt lat="48.69878" lon="1.73461">
        <ele>178.19999694824</ele>
        <time>2014-06-06T10:05:42.000Z</time>
      </trkpt>
      <trkpt lat="48.69879" lon="1.73445">
        <ele>178</ele>
        <time>2014-06-06T10:05:48.000Z</time>
      </trkpt>
      <trkpt lat="48.69881" lon="1.7343">
        <ele>178</ele>
        <time>2014-06-06T10:05:55.000Z</time>
      </trkpt>
      <trkpt lat="48.69881" lon="1.73426">
        <ele>178.19999694824</ele>
        <time>2014-06-06T10:05:58.000Z</time>
      </trkpt>
      <trkpt lat="48.69872" lon="1.73415">
        <ele>178.60000610352</ele>
        <time>2014-06-06T10:06:05.000Z</time>
      </trkpt>
      <trkpt lat="48.69866" lon="1.73405">
        <ele>179</ele>
        <time>2014-06-06T10:06:10.000Z</time>
      </trkpt>
      <trkpt lat="48.69865" lon="1.73393">
        <ele>178.80000305176</ele>
        <time>2014-06-06T10:06:15.000Z</time>
      </trkpt>
      <trkpt lat="48.69862" lon="1.73385">
        <ele>178.80000305176</ele>
        <time>2014-06-06T10:06:18.000Z</time>
      </trkpt>
      <trkpt lat="48.69865" lon="1.73374">
        <ele>178.60000610352</ele>
        <time>2014-06-06T10:06:24.000Z</time>
      </trkpt>
      <trkpt lat="48.69865" lon="1.7337">
        <ele>178.60000610352</ele>
        <time>2014-06-06T10:06:26.000Z</time>
      </trkpt>
      <trkpt lat="48.69866" lon="1.73361">
        <ele>178.39999389648</ele>
        <time>2014-06-06T10:06:30.000Z</time>
      </trkpt>
      <trkpt lat="48.69867" lon="1.73342">
        <ele>178.19999694824</ele>
        <time>2014-06-06T10:06:38.000Z</time>
      </trkpt>
      <trkpt lat="48.69864" lon="1.73324">
        <ele>178</ele>
        <time>2014-06-06T10:06:45.000Z</time>
      </trkpt>
      <trkpt lat="48.69863" lon="1.73314">
        <ele>177.60000610352</ele>
        <time>2014-06-06T10:06:49.000Z</time>
      </trkpt>
      <trkpt lat="48.69863" lon="1.73298">
        <ele>177</ele>
        <time>2014-06-06T10:06:56.000Z</time>
      </trkpt>
      <trkpt lat="48.69864" lon="1.73295">
        <ele>177</ele>
        <time>2014-06-06T10:06:58.000Z</time>
      </trkpt>
      <trkpt lat="48.69864" lon="1.7329">
        <ele>176.80000305176</ele>
        <time>2014-06-06T10:07:01.000Z</time>
      </trkpt>
      <trkpt lat="48.69862" lon="1.73281">
        <ele>176.39999389648</ele>
        <time>2014-06-06T10:07:09.000Z</time>
      </trkpt>
      <trkpt lat="48.69861" lon="1.73276">
        <ele>176.39999389648</ele>
        <time>2014-06-06T10:07:13.000Z</time>
      </trkpt>
      <trkpt lat="48.69857" lon="1.7327">
        <ele>176.19999694824</ele>
        <time>2014-06-06T10:07:17.000Z</time>
      </trkpt>
      <trkpt lat="48.69852" lon="1.73253">
        <ele>175.60000610352</ele>
        <time>2014-06-06T10:07:25.000Z</time>
      </trkpt>
      <trkpt lat="48.69851" lon="1.73246">
        <ele>175.19999694824</ele>
        <time>2014-06-06T10:07:29.000Z</time>
      </trkpt>
      <trkpt lat="48.69848" lon="1.73234">
        <ele>174.80000305176</ele>
        <time>2014-06-06T10:07:37.000Z</time>
      </trkpt>
      <trkpt lat="48.69842" lon="1.73222">
        <ele>174.60000610352</ele>
        <time>2014-06-06T10:07:44.000Z</time>
      </trkpt>
      <trkpt lat="48.69837" lon="1.73208">
        <ele>174.39999389648</ele>
        <time>2014-06-06T10:07:49.000Z</time>
      </trkpt>
      <trkpt lat="48.69836" lon="1.732">
        <ele>174.39999389648</ele>
        <time>2014-06-06T10:07:52.000Z</time>
      </trkpt>
      <trkpt lat="48.69835" lon="1.73193">
        <ele>174.39999389648</ele>
        <time>2014-06-06T10:07:56.000Z</time>
      </trkpt>
      <trkpt lat="48.69835" lon="1.73172">
        <ele>174.39999389648</ele>
        <time>2014-06-06T10:08:06.000Z</time>
      </trkpt>
      <trkpt lat="48.69839" lon="1.73162">
        <ele>174.39999389648</ele>
        <time>2014-06-06T10:08:12.000Z</time>
      </trkpt>
      <trkpt lat="48.69839" lon="1.73156">
        <ele>174.60000610352</ele>
        <time>2014-06-06T10:08:15.000Z</time>
      </trkpt>
      <trkpt lat="48.69837" lon="1.73144">
        <ele>174.60000610352</ele>
        <time>2014-06-06T10:08:21.000Z</time>
      </trkpt>
      <trkpt lat="48.69837" lon="1.73122">
        <ele>174.80000305176</ele>
        <time>2014-06-06T10:08:31.000Z</time>
      </trkpt>
      <trkpt lat="48.69832" lon="1.73106">
        <ele>174.80000305176</ele>
        <time>2014-06-06T10:08:39.000Z</time>
      </trkpt>
      <trkpt lat="48.69829" lon="1.73101">
        <ele>174.80000305176</ele>
        <time>2014-06-06T10:08:41.000Z</time>
      </trkpt>
      <trkpt lat="48.6983" lon="1.73092">
        <ele>174.80000305176</ele>
        <time>2014-06-06T10:08:45.000Z</time>
      </trkpt>
      <trkpt lat="48.69828" lon="1.73074">
        <ele>174.60000610352</ele>
        <time>2014-06-06T10:08:52.000Z</time>
      </trkpt>
      <trkpt lat="48.69829" lon="1.73065">
        <ele>174.60000610352</ele>
        <time>2014-06-06T10:08:57.000Z</time>
      </trkpt>
      <trkpt lat="48.69828" lon="1.73057">
        <ele>174.39999389648</ele>
        <time>2014-06-06T10:09:00.000Z</time>
      </trkpt>
      <trkpt lat="48.6983" lon="1.73048">
        <ele>174.19999694824</ele>
        <time>2014-06-06T10:09:05.000Z</time>
      </trkpt>
      <trkpt lat="48.69827" lon="1.73042">
        <ele>174</ele>
        <time>2014-06-06T10:09:07.000Z</time>
      </trkpt>
      <trkpt lat="48.69822" lon="1.73023">
        <ele>173.19999694824</ele>
        <time>2014-06-06T10:09:16.000Z</time>
      </trkpt>
      <trkpt lat="48.69818" lon="1.73008">
        <ele>172.80000305176</ele>
        <time>2014-06-06T10:09:23.000Z</time>
      </trkpt>
      <trkpt lat="48.69817" lon="1.72993">
        <ele>172.19999694824</ele>
        <time>2014-06-06T10:09:30.000Z</time>
      </trkpt>
      <trkpt lat="48.69815" lon="1.72985">
        <ele>172</ele>
        <time>2014-06-06T10:09:34.000Z</time>
      </trkpt>
      <trkpt lat="48.69814" lon="1.72971">
        <ele>171.39999389648</ele>
        <time>2014-06-06T10:09:42.000Z</time>
      </trkpt>
      <trkpt lat="48.69814" lon="1.72968">
        <ele>171.39999389648</ele>
        <time>2014-06-06T10:09:44.000Z</time>
      </trkpt>
      <trkpt lat="48.69809" lon="1.72957">
        <ele>171</ele>
        <time>2014-06-06T10:09:49.000Z</time>
      </trkpt>
      <trkpt lat="48.69801" lon="1.72942">
        <ele>170.39999389648</ele>
        <time>2014-06-06T10:09:56.000Z</time>
      </trkpt>
      <trkpt lat="48.69798" lon="1.72928">
        <ele>170</ele>
        <time>2014-06-06T10:10:03.000Z</time>
      </trkpt>
      <trkpt lat="48.69795" lon="1.72919">
        <ele>169.60000610352</ele>
        <time>2014-06-06T10:10:09.000Z</time>
      </trkpt>
      <trkpt lat="48.69794" lon="1.72914">
        <ele>169.60000610352</ele>
        <time>2014-06-06T10:10:12.000Z</time>
      </trkpt>
      <trkpt lat="48.69793" lon="1.72909">
        <ele>169.39999389648</ele>
        <time>2014-06-06T10:10:14.000Z</time>
      </trkpt>
      <trkpt lat="48.69789" lon="1.72901">
        <ele>169.19999694824</ele>
        <time>2014-06-06T10:10:18.000Z</time>
      </trkpt>
      <trkpt lat="48.69787" lon="1.72896">
        <ele>169.19999694824</ele>
        <time>2014-06-06T10:10:23.000Z</time>
      </trkpt>
      <trkpt lat="48.69783" lon="1.72885">
        <ele>169</ele>
        <time>2014-06-06T10:10:29.000Z</time>
      </trkpt>
      <trkpt lat="48.69776" lon="1.72873">
        <ele>168.80000305176</ele>
        <time>2014-06-06T10:10:35.000Z</time>
      </trkpt>
      <trkpt lat="48.69772" lon="1.72865">
        <ele>168.60000610352</ele>
        <time>2014-06-06T10:10:39.000Z</time>
      </trkpt>
      <trkpt lat="48.69771" lon="1.72862">
        <ele>168.60000610352</ele>
        <time>2014-06-06T10:10:41.000Z</time>
      </trkpt>
      <trkpt lat="48.69766" lon="1.72855">
        <ele>168.39999389648</ele>
        <time>2014-06-06T10:10:47.000Z</time>
      </trkpt>
      <trkpt lat="48.69761" lon="1.72851">
        <ele>168.19999694824</ele>
        <time>2014-06-06T10:10:53.000Z</time>
      </trkpt>
      <trkpt lat="48.6976" lon="1.7285">
        <ele>168.19999694824</ele>
        <time>2014-06-06T10:10:54.000Z</time>
      </trkpt>
      <trkpt lat="48.69752" lon="1.72844">
        <ele>167.80000305176</ele>
        <time>2014-06-06T10:11:01.000Z</time>
      </trkpt>
      <trkpt lat="48.69745" lon="1.72839">
        <ele>167.60000610352</ele>
        <time>2014-06-06T10:11:07.000Z</time>
      </trkpt>
      <trkpt lat="48.69737" lon="1.72836">
        <ele>167.39999389648</ele>
        <time>2014-06-06T10:11:13.000Z</time>
      </trkpt>
      <trkpt lat="48.69728" lon="1.72833">
        <ele>167.19999694824</ele>
        <time>2014-06-06T10:11:20.000Z</time>
      </trkpt>
      <trkpt lat="48.69719" lon="1.72828">
        <ele>166.80000305176</ele>
        <time>2014-06-06T10:11:26.000Z</time>
      </trkpt>
      <trkpt lat="48.6971" lon="1.72827">
        <ele>166.60000610352</ele>
        <time>2014-06-06T10:11:33.000Z</time>
      </trkpt>
      <trkpt lat="48.69703" lon="1.72824">
        <ele>166.39999389648</ele>
        <time>2014-06-06T10:11:39.000Z</time>
      </trkpt>
      <trkpt lat="48.69692" lon="1.72813">
        <ele>166.19999694824</ele>
        <time>2014-06-06T10:11:47.000Z</time>
      </trkpt>
      <trkpt lat="48.69683" lon="1.72805">
        <ele>166.19999694824</ele>
        <time>2014-06-06T10:11:55.000Z</time>
      </trkpt>
      <trkpt lat="48.6968" lon="1.72803">
        <ele>166.19999694824</ele>
        <time>2014-06-06T10:12:00.000Z</time>
      </trkpt>
      <trkpt lat="48.69679" lon="1.72801">
        <ele>166.39999389648</ele>
        <time>2014-06-06T10:12:01.000Z</time>
      </trkpt>
      <trkpt lat="48.69674" lon="1.72787">
        <ele>166.60000610352</ele>
        <time>2014-06-06T10:12:07.000Z</time>
      </trkpt>
      <trkpt lat="48.69673" lon="1.72785">
        <ele>166.60000610352</ele>
        <time>2014-06-06T10:12:08.000Z</time>
      </trkpt>
      <trkpt lat="48.69666" lon="1.72767">
        <ele>166.80000305176</ele>
        <time>2014-06-06T10:12:17.000Z</time>
      </trkpt>
      <trkpt lat="48.69662" lon="1.72755">
        <ele>167</ele>
        <time>2014-06-06T10:12:23.000Z</time>
      </trkpt>
      <trkpt lat="48.69661" lon="1.72753">
        <ele>167.19999694824</ele>
        <time>2014-06-06T10:12:24.000Z</time>
      </trkpt>
      <trkpt lat="48.6966" lon="1.72743">
        <ele>167.19999694824</ele>
        <time>2014-06-06T10:12:29.000Z</time>
      </trkpt>
      <trkpt lat="48.69659" lon="1.7274">
        <ele>167.19999694824</ele>
        <time>2014-06-06T10:12:31.000Z</time>
      </trkpt>
      <trkpt lat="48.69658" lon="1.72737">
        <ele>167.39999389648</ele>
        <time>2014-06-06T10:12:34.000Z</time>
      </trkpt>
      <trkpt lat="48.69649" lon="1.72727">
        <ele>167.60000610352</ele>
        <time>2014-06-06T10:12:42.000Z</time>
      </trkpt>
      <trkpt lat="48.69642" lon="1.72726">
        <ele>167.80000305176</ele>
        <time>2014-06-06T10:12:49.000Z</time>
      </trkpt>
      <trkpt lat="48.69633" lon="1.72722">
        <ele>168</ele>
        <time>2014-06-06T10:12:57.000Z</time>
      </trkpt>
      <trkpt lat="48.69632" lon="1.72721">
        <ele>168</ele>
        <time>2014-06-06T10:12:58.000Z</time>
      </trkpt>
      <trkpt lat="48.69626" lon="1.72717">
        <ele>168.19999694824</ele>
        <time>2014-06-06T10:13:03.000Z</time>
      </trkpt>
      <trkpt lat="48.69623" lon="1.72715">
        <ele>168.19999694824</ele>
        <time>2014-06-06T10:13:05.000Z</time>
      </trkpt>
      <trkpt lat="48.69619" lon="1.72714">
        <ele>168.39999389648</ele>
        <time>2014-06-06T10:13:09.000Z</time>
      </trkpt>
      <trkpt lat="48.6961" lon="1.72712">
        <ele>168.60000610352</ele>
        <time>2014-06-06T10:13:16.000Z</time>
      </trkpt>
      <trkpt lat="48.69603" lon="1.7271">
        <ele>168.60000610352</ele>
        <time>2014-06-06T10:13:21.000Z</time>
      </trkpt>
      <trkpt lat="48.69593" lon="1.72709">
        <ele>168</ele>
        <time>2014-06-06T10:13:27.000Z</time>
      </trkpt>
      <trkpt lat="48.69583" lon="1.72708">
        <ele>167.19999694824</ele>
        <time>2014-06-06T10:13:34.000Z</time>
      </trkpt>
      <trkpt lat="48.69581" lon="1.72708">
        <ele>167</ele>
        <time>2014-06-06T10:13:35.000Z</time>
      </trkpt>
      <trkpt lat="48.6957" lon="1.72705">
        <ele>166.39999389648</ele>
        <time>2014-06-06T10:13:43.000Z</time>
      </trkpt>
      <trkpt lat="48.69559" lon="1.72706">
        <ele>165.80000305176</ele>
        <time>2014-06-06T10:13:49.000Z</time>
      </trkpt>
      <trkpt lat="48.69548" lon="1.72711">
        <ele>165</ele>
        <time>2014-06-06T10:13:56.000Z</time>
      </trkpt>
      <trkpt lat="48.6954" lon="1.72725">
        <ele>164.39999389648</ele>
        <time>2014-06-06T10:14:04.000Z</time>
      </trkpt>
      <trkpt lat="48.6953" lon="1.72727">
        <ele>163.80000305176</ele>
        <time>2014-06-06T10:14:11.000Z</time>
      </trkpt>
      <trkpt lat="48.6952" lon="1.72721">
        <ele>163.19999694824</ele>
        <time>2014-06-06T10:14:18.000Z</time>
      </trkpt>
      <trkpt lat="48.69519" lon="1.7272">
        <ele>163.19999694824</ele>
        <time>2014-06-06T10:14:19.000Z</time>
      </trkpt>
      <trkpt lat="48.69511" lon="1.72714">
        <ele>162.80000305176</ele>
        <time>2014-06-06T10:14:25.000Z</time>
      </trkpt>
      <trkpt lat="48.69504" lon="1.72715">
        <ele>162.39999389648</ele>
        <time>2014-06-06T10:14:30.000Z</time>
      </trkpt>
      <trkpt lat="48.69492" lon="1.72722">
        <ele>162</ele>
        <time>2014-06-06T10:14:39.000Z</time>
      </trkpt>
      <trkpt lat="48.69479" lon="1.72727">
        <ele>161.60000610352</ele>
        <time>2014-06-06T10:14:46.000Z</time>
      </trkpt>
      <trkpt lat="48.69467" lon="1.72733">
        <ele>161</ele>
        <time>2014-06-06T10:14:55.000Z</time>
      </trkpt>
      <trkpt lat="48.69455" lon="1.72737">
        <ele>160.60000610352</ele>
        <time>2014-06-06T10:15:03.000Z</time>
      </trkpt>
      <trkpt lat="48.69444" lon="1.72742">
        <ele>160.60000610352</ele>
        <time>2014-06-06T10:15:10.000Z</time>
      </trkpt>
      <trkpt lat="48.69435" lon="1.72748">
        <ele>160.80000305176</ele>
        <time>2014-06-06T10:15:17.000Z</time>
      </trkpt>
      <trkpt lat="48.69422" lon="1.72751">
        <ele>162</ele>
        <time>2014-06-06T10:15:26.000Z</time>
      </trkpt>
      <trkpt lat="48.6942" lon="1.72752">
        <ele>162.39999389648</ele>
        <time>2014-06-06T10:15:28.000Z</time>
      </trkpt>
      <trkpt lat="48.6941" lon="1.72758">
        <ele>163.39999389648</ele>
        <time>2014-06-06T10:15:35.000Z</time>
      </trkpt>
      <trkpt lat="48.69399" lon="1.72763">
        <ele>164.80000305176</ele>
        <time>2014-06-06T10:15:43.000Z</time>
      </trkpt>
      <trkpt lat="48.69385" lon="1.72768">
        <ele>166.19999694824</ele>
        <time>2014-06-06T10:15:53.000Z</time>
      </trkpt>
      <trkpt lat="48.69374" lon="1.72773">
        <ele>166.60000610352</ele>
        <time>2014-06-06T10:16:01.000Z</time>
      </trkpt>
      <trkpt lat="48.69361" lon="1.7278">
        <ele>166.80000305176</ele>
        <time>2014-06-06T10:16:09.000Z</time>
      </trkpt>
      <trkpt lat="48.69353" lon="1.72784">
        <ele>167</ele>
        <time>2014-06-06T10:16:15.000Z</time>
      </trkpt>
      <trkpt lat="48.69347" lon="1.72789">
        <ele>167.39999389648</ele>
        <time>2014-06-06T10:16:19.000Z</time>
      </trkpt>
      <trkpt lat="48.69338" lon="1.72796">
        <ele>168</ele>
        <time>2014-06-06T10:16:25.000Z</time>
      </trkpt>
      <trkpt lat="48.69332" lon="1.728">
        <ele>168.19999694824</ele>
        <time>2014-06-06T10:16:30.000Z</time>
      </trkpt>
      <trkpt lat="48.69321" lon="1.7281">
        <ele>168.39999389648</ele>
        <time>2014-06-06T10:16:38.000Z</time>
      </trkpt>
      <trkpt lat="48.69308" lon="1.72813">
        <ele>168.80000305176</ele>
        <time>2014-06-06T10:16:46.000Z</time>
      </trkpt>
      <trkpt lat="48.69299" lon="1.72812">
        <ele>169.19999694824</ele>
        <time>2014-06-06T10:16:53.000Z</time>
      </trkpt>
      <trkpt lat="48.69295" lon="1.72814">
        <ele>169.19999694824</ele>
        <time>2014-06-06T10:16:57.000Z</time>
      </trkpt>
      <trkpt lat="48.69285" lon="1.72821">
        <ele>169.39999389648</ele>
        <time>2014-06-06T10:17:05.000Z</time>
      </trkpt>
      <trkpt lat="48.69279" lon="1.72827">
        <ele>169.80000305176</ele>
        <time>2014-06-06T10:17:10.000Z</time>
      </trkpt>
      <trkpt lat="48.69268" lon="1.7284">
        <ele>170.19999694824</ele>
        <time>2014-06-06T10:17:17.000Z</time>
      </trkpt>
      <trkpt lat="48.69259" lon="1.72849">
        <ele>170.19999694824</ele>
        <time>2014-06-06T10:17:24.000Z</time>
      </trkpt>
      <trkpt lat="48.69255" lon="1.72853">
        <ele>170.19999694824</ele>
        <time>2014-06-06T10:17:29.000Z</time>
      </trkpt>
      <trkpt lat="48.69252" lon="1.72856">
        <ele>170.19999694824</ele>
        <time>2014-06-06T10:17:31.000Z</time>
      </trkpt>
      <trkpt lat="48.6924" lon="1.72861">
        <ele>170.19999694824</ele>
        <time>2014-06-06T10:17:38.000Z</time>
      </trkpt>
      <trkpt lat="48.69235" lon="1.72861">
        <ele>170</ele>
        <time>2014-06-06T10:17:42.000Z</time>
      </trkpt>
      <trkpt lat="48.69228" lon="1.72865">
        <ele>170</ele>
        <time>2014-06-06T10:17:46.000Z</time>
      </trkpt>
      <trkpt lat="48.69214" lon="1.72869">
        <ele>170.19999694824</ele>
        <time>2014-06-06T10:17:53.000Z</time>
      </trkpt>
      <trkpt lat="48.69203" lon="1.7287">
        <ele>170.19999694824</ele>
        <time>2014-06-06T10:18:00.000Z</time>
      </trkpt>
      <trkpt lat="48.69196" lon="1.72872">
        <ele>170.19999694824</ele>
        <time>2014-06-06T10:18:06.000Z</time>
      </trkpt>
      <trkpt lat="48.69187" lon="1.72874">
        <ele>170.19999694824</ele>
        <time>2014-06-06T10:18:13.000Z</time>
      </trkpt>
      <trkpt lat="48.69181" lon="1.72875">
        <ele>170.39999389648</ele>
        <time>2014-06-06T10:18:17.000Z</time>
      </trkpt>
      <trkpt lat="48.69175" lon="1.72882">
        <ele>170.39999389648</ele>
        <time>2014-06-06T10:18:23.000Z</time>
      </trkpt>
      <trkpt lat="48.69174" lon="1.72885">
        <ele>170.60000610352</ele>
        <time>2014-06-06T10:18:25.000Z</time>
      </trkpt>
      <trkpt lat="48.69166" lon="1.7289">
        <ele>170.80000305176</ele>
        <time>2014-06-06T10:18:30.000Z</time>
      </trkpt>
      <trkpt lat="48.69154" lon="1.72892">
        <ele>171</ele>
        <time>2014-06-06T10:18:38.000Z</time>
      </trkpt>
      <trkpt lat="48.69145" lon="1.72894">
        <ele>171.19999694824</ele>
        <time>2014-06-06T10:18:44.000Z</time>
      </trkpt>
      <trkpt lat="48.69135" lon="1.72896">
        <ele>171.39999389648</ele>
        <time>2014-06-06T10:18:51.000Z</time>
      </trkpt>
      <trkpt lat="48.69126" lon="1.72899">
        <ele>171.60000610352</ele>
        <time>2014-06-06T10:18:57.000Z</time>
      </trkpt>
      <trkpt lat="48.69116" lon="1.72902">
        <ele>171.80000305176</ele>
        <time>2014-06-06T10:19:03.000Z</time>
      </trkpt>
      <trkpt lat="48.69104" lon="1.72907">
        <ele>172</ele>
        <time>2014-06-06T10:19:10.000Z</time>
      </trkpt>
      <trkpt lat="48.69091" lon="1.72913">
        <ele>171.39999389648</ele>
        <time>2014-06-06T10:19:18.000Z</time>
      </trkpt>
      <trkpt lat="48.69086" lon="1.72917">
        <ele>171</ele>
        <time>2014-06-06T10:19:23.000Z</time>
      </trkpt>
      <trkpt lat="48.69078" lon="1.7292">
        <ele>170.60000610352</ele>
        <time>2014-06-06T10:19:30.000Z</time>
      </trkpt>
      <trkpt lat="48.6907" lon="1.72924">
        <ele>170</ele>
        <time>2014-06-06T10:19:36.000Z</time>
      </trkpt>
      <trkpt lat="48.6906" lon="1.7293">
        <ele>169.60000610352</ele>
        <time>2014-06-06T10:19:41.000Z</time>
      </trkpt>
      <trkpt lat="48.69048" lon="1.72935">
        <ele>169</ele>
        <time>2014-06-06T10:19:48.000Z</time>
      </trkpt>
      <trkpt lat="48.69039" lon="1.72945">
        <ele>169.19999694824</ele>
        <time>2014-06-06T10:19:54.000Z</time>
      </trkpt>
      <trkpt lat="48.69029" lon="1.72951">
        <ele>169.19999694824</ele>
        <time>2014-06-06T10:20:01.000Z</time>
      </trkpt>
      <trkpt lat="48.6902" lon="1.72952">
        <ele>168.80000305176</ele>
        <time>2014-06-06T10:20:07.000Z</time>
      </trkpt>
      <trkpt lat="48.69018" lon="1.72956">
        <ele>169</ele>
        <time>2014-06-06T10:20:15.000Z</time>
      </trkpt>
      <trkpt lat="48.69013" lon="1.7296">
        <ele>169.19999694824</ele>
        <time>2014-06-06T10:20:21.000Z</time>
      </trkpt>
      <trkpt lat="48.6901" lon="1.7296">
        <ele>169</ele>
        <time>2014-06-06T10:20:22.000Z</time>
      </trkpt>
      <trkpt lat="48.68999" lon="1.72967">
        <ele>169</ele>
        <time>2014-06-06T10:20:30.000Z</time>
      </trkpt>
      <trkpt lat="48.68998" lon="1.72968">
        <ele>169</ele>
        <time>2014-06-06T10:20:31.000Z</time>
      </trkpt>
      <trkpt lat="48.68991" lon="1.7297">
        <ele>169</ele>
        <time>2014-06-06T10:20:35.000Z</time>
      </trkpt>
      <trkpt lat="48.68982" lon="1.72972">
        <ele>168.80000305176</ele>
        <time>2014-06-06T10:20:41.000Z</time>
      </trkpt>
      <trkpt lat="48.68974" lon="1.72974">
        <ele>168.60000610352</ele>
        <time>2014-06-06T10:20:47.000Z</time>
      </trkpt>
      <trkpt lat="48.68963" lon="1.72976">
        <ele>168.19999694824</ele>
        <time>2014-06-06T10:20:53.000Z</time>
      </trkpt>
      <trkpt lat="48.68953" lon="1.72979">
        <ele>168</ele>
        <time>2014-06-06T10:20:59.000Z</time>
      </trkpt>
      <trkpt lat="48.68949" lon="1.72983">
        <ele>168.19999694824</ele>
        <time>2014-06-06T10:21:02.000Z</time>
      </trkpt>
      <trkpt lat="48.6894" lon="1.72988">
        <ele>168.19999694824</ele>
        <time>2014-06-06T10:21:08.000Z</time>
      </trkpt>
      <trkpt lat="48.68929" lon="1.72994">
        <ele>167.80000305176</ele>
        <time>2014-06-06T10:21:16.000Z</time>
      </trkpt>
      <trkpt lat="48.68919" lon="1.72998">
        <ele>167.60000610352</ele>
        <time>2014-06-06T10:21:22.000Z</time>
      </trkpt>
      <trkpt lat="48.68909" lon="1.73002">
        <ele>167.19999694824</ele>
        <time>2014-06-06T10:21:30.000Z</time>
      </trkpt>
      <trkpt lat="48.68906" lon="1.73004">
        <ele>167</ele>
        <time>2014-06-06T10:21:33.000Z</time>
      </trkpt>
      <trkpt lat="48.689" lon="1.73005">
        <ele>166.80000305176</ele>
        <time>2014-06-06T10:21:37.000Z</time>
      </trkpt>
      <trkpt lat="48.6889" lon="1.73009">
        <ele>166.60000610352</ele>
        <time>2014-06-06T10:21:44.000Z</time>
      </trkpt>
      <trkpt lat="48.68875" lon="1.73018">
        <ele>166.39999389648</ele>
        <time>2014-06-06T10:21:53.000Z</time>
      </trkpt>
      <trkpt lat="48.68868" lon="1.73022">
        <ele>166.39999389648</ele>
        <time>2014-06-06T10:21:58.000Z</time>
      </trkpt>
      <trkpt lat="48.68858" lon="1.73026">
        <ele>166.39999389648</ele>
        <time>2014-06-06T10:22:05.000Z</time>
      </trkpt>
      <trkpt lat="48.68846" lon="1.73032">
        <ele>166.80000305176</ele>
        <time>2014-06-06T10:22:13.000Z</time>
      </trkpt>
      <trkpt lat="48.68835" lon="1.73036">
        <ele>167.19999694824</ele>
        <time>2014-06-06T10:22:20.000Z</time>
      </trkpt>
      <trkpt lat="48.68823" lon="1.7304">
        <ele>167.60000610352</ele>
        <time>2014-06-06T10:22:27.000Z</time>
      </trkpt>
      <trkpt lat="48.68813" lon="1.73045">
        <ele>167.19999694824</ele>
        <time>2014-06-06T10:22:34.000Z</time>
      </trkpt>
      <trkpt lat="48.68806" lon="1.73047">
        <ele>166.80000305176</ele>
        <time>2014-06-06T10:22:39.000Z</time>
      </trkpt>
      <trkpt lat="48.68803" lon="1.73048">
        <ele>166.80000305176</ele>
        <time>2014-06-06T10:22:41.000Z</time>
      </trkpt>
      <trkpt lat="48.68793" lon="1.73056">
        <ele>166.19999694824</ele>
        <time>2014-06-06T10:22:47.000Z</time>
      </trkpt>
      <trkpt lat="48.68783" lon="1.73059">
        <ele>165.80000305176</ele>
        <time>2014-06-06T10:22:53.000Z</time>
      </trkpt>
      <trkpt lat="48.68769" lon="1.73069">
        <ele>165</ele>
        <time>2014-06-06T10:23:01.000Z</time>
      </trkpt>
      <trkpt lat="48.68761" lon="1.73075">
        <ele>165.80000305176</ele>
        <time>2014-06-06T10:23:07.000Z</time>
      </trkpt>
      <trkpt lat="48.68754" lon="1.73078">
        <ele>166.19999694824</ele>
        <time>2014-06-06T10:23:11.000Z</time>
      </trkpt>
      <trkpt lat="48.68752" lon="1.73082">
        <ele>166.39999389648</ele>
        <time>2014-06-06T10:23:14.000Z</time>
      </trkpt>
      <trkpt lat="48.68749" lon="1.73085">
        <ele>166.80000305176</ele>
        <time>2014-06-06T10:23:20.000Z</time>
      </trkpt>
      <trkpt lat="48.68741" lon="1.73092">
        <ele>167.39999389648</ele>
        <time>2014-06-06T10:23:25.000Z</time>
      </trkpt>
      <trkpt lat="48.6873" lon="1.73097">
        <ele>168.39999389648</ele>
        <time>2014-06-06T10:23:31.000Z</time>
      </trkpt>
      <trkpt lat="48.68724" lon="1.73096">
        <ele>168.80000305176</ele>
        <time>2014-06-06T10:23:34.000Z</time>
      </trkpt>
      <trkpt lat="48.68714" lon="1.73096">
        <ele>169.80000305176</ele>
        <time>2014-06-06T10:23:41.000Z</time>
      </trkpt>
      <trkpt lat="48.68704" lon="1.731">
        <ele>170.19999694824</ele>
        <time>2014-06-06T10:23:48.000Z</time>
      </trkpt>
      <trkpt lat="48.68696" lon="1.73105">
        <ele>170.19999694824</ele>
        <time>2014-06-06T10:23:54.000Z</time>
      </trkpt>
      <trkpt lat="48.68689" lon="1.73108">
        <ele>170.60000610352</ele>
        <time>2014-06-06T10:24:00.000Z</time>
      </trkpt>
      <trkpt lat="48.68679" lon="1.73115">
        <ele>170.19999694824</ele>
        <time>2014-06-06T10:24:07.000Z</time>
      </trkpt>
      <trkpt lat="48.68671" lon="1.73119">
        <ele>169.60000610352</ele>
        <time>2014-06-06T10:24:13.000Z</time>
      </trkpt>
      <trkpt lat="48.68664" lon="1.73122">
        <ele>169.39999389648</ele>
        <time>2014-06-06T10:24:18.000Z</time>
      </trkpt>
      <trkpt lat="48.68652" lon="1.73127">
        <ele>169</ele>
        <time>2014-06-06T10:24:26.000Z</time>
      </trkpt>
      <trkpt lat="48.68644" lon="1.7313">
        <ele>169.19999694824</ele>
        <time>2014-06-06T10:24:32.000Z</time>
      </trkpt>
      <trkpt lat="48.68639" lon="1.73129">
        <ele>169.19999694824</ele>
        <time>2014-06-06T10:24:35.000Z</time>
      </trkpt>
      <trkpt lat="48.6863" lon="1.73141">
        <ele>169.60000610352</ele>
        <time>2014-06-06T10:24:41.000Z</time>
      </trkpt>
      <trkpt lat="48.68617" lon="1.73146">
        <ele>169.80000305176</ele>
        <time>2014-06-06T10:24:50.000Z</time>
      </trkpt>
      <trkpt lat="48.6861" lon="1.73149">
        <ele>169.80000305176</ele>
        <time>2014-06-06T10:24:55.000Z</time>
      </trkpt>
      <trkpt lat="48.68594" lon="1.73153">
        <ele>169.60000610352</ele>
        <time>2014-06-06T10:25:05.000Z</time>
      </trkpt>
      <trkpt lat="48.68591" lon="1.73154">
        <ele>169.39999389648</ele>
        <time>2014-06-06T10:25:07.000Z</time>
      </trkpt>
      <trkpt lat="48.68584" lon="1.73156">
        <ele>169</ele>
        <time>2014-06-06T10:25:12.000Z</time>
      </trkpt>
      <trkpt lat="48.68571" lon="1.73163">
        <ele>168</ele>
        <time>2014-06-06T10:25:21.000Z</time>
      </trkpt>
      <trkpt lat="48.68557" lon="1.73172">
        <ele>167</ele>
        <time>2014-06-06T10:25:29.000Z</time>
      </trkpt>
      <trkpt lat="48.6855" lon="1.73178">
        <ele>166.19999694824</ele>
        <time>2014-06-06T10:25:34.000Z</time>
      </trkpt>
      <trkpt lat="48.68543" lon="1.73184">
        <ele>166</ele>
        <time>2014-06-06T10:25:39.000Z</time>
      </trkpt>
      <trkpt lat="48.68535" lon="1.73196">
        <ele>166.39999389648</ele>
        <time>2014-06-06T10:25:47.000Z</time>
      </trkpt>
      <trkpt lat="48.68526" lon="1.73212">
        <ele>166.60000610352</ele>
        <time>2014-06-06T10:25:54.000Z</time>
      </trkpt>
      <trkpt lat="48.68516" lon="1.7323">
        <ele>167.19999694824</ele>
        <time>2014-06-06T10:26:00.000Z</time>
      </trkpt>
      <trkpt lat="48.68508" lon="1.73245">
        <ele>167.39999389648</ele>
        <time>2014-06-06T10:26:06.000Z</time>
      </trkpt>
      <trkpt lat="48.685" lon="1.73261">
        <ele>168</ele>
        <time>2014-06-06T10:26:13.000Z</time>
      </trkpt>
      <trkpt lat="48.68494" lon="1.73276">
        <ele>168.60000610352</ele>
        <time>2014-06-06T10:26:19.000Z</time>
      </trkpt>
      <trkpt lat="48.68485" lon="1.73288">
        <ele>169</ele>
        <time>2014-06-06T10:26:27.000Z</time>
      </trkpt>
      <trkpt lat="48.68479" lon="1.73297">
        <ele>168.80000305176</ele>
        <time>2014-06-06T10:26:34.000Z</time>
      </trkpt>
      <trkpt lat="48.68474" lon="1.73307">
        <ele>168.60000610352</ele>
        <time>2014-06-06T10:26:39.000Z</time>
      </trkpt>
      <trkpt lat="48.68466" lon="1.7332">
        <ele>168.39999389648</ele>
        <time>2014-06-06T10:26:46.000Z</time>
      </trkpt>
      <trkpt lat="48.68457" lon="1.7333">
        <ele>168.39999389648</ele>
        <time>2014-06-06T10:26:54.000Z</time>
      </trkpt>
      <trkpt lat="48.6845" lon="1.73339">
        <ele>168.60000610352</ele>
        <time>2014-06-06T10:27:00.000Z</time>
      </trkpt>
      <trkpt lat="48.68438" lon="1.73356">
        <ele>169.19999694824</ele>
        <time>2014-06-06T10:27:10.000Z</time>
      </trkpt>
      <trkpt lat="48.68428" lon="1.73371">
        <ele>170.19999694824</ele>
        <time>2014-06-06T10:27:19.000Z</time>
      </trkpt>
      <trkpt lat="48.6842" lon="1.73386">
        <ele>171.19999694824</ele>
        <time>2014-06-06T10:27:26.000Z</time>
      </trkpt>
      <trkpt lat="48.68409" lon="1.73403">
        <ele>171</ele>
        <time>2014-06-06T10:27:31.000Z</time>
      </trkpt>
      <trkpt lat="48.68392" lon="1.73431">
        <ele>171</ele>
        <time>2014-06-06T10:27:38.000Z</time>
      </trkpt>
      <trkpt lat="48.68375" lon="1.73456">
        <ele>171</ele>
        <time>2014-06-06T10:27:44.000Z</time>
      </trkpt>
      <trkpt lat="48.68366" lon="1.73472">
        <ele>171</ele>
        <time>2014-06-06T10:27:48.000Z</time>
      </trkpt>
      <trkpt lat="48.6835" lon="1.73498">
        <ele>170.80000305176</ele>
        <time>2014-06-06T10:27:54.000Z</time>
      </trkpt>
      <trkpt lat="48.68341" lon="1.7351">
        <ele>170.60000610352</ele>
        <time>2014-06-06T10:27:57.000Z</time>
      </trkpt>
      <trkpt lat="48.68331" lon="1.73531">
        <ele>170.19999694824</ele>
        <time>2014-06-06T10:28:01.000Z</time>
      </trkpt>
      <trkpt lat="48.68322" lon="1.7356">
        <ele>170.19999694824</ele>
        <time>2014-06-06T10:28:07.000Z</time>
      </trkpt>
      <trkpt lat="48.6832" lon="1.73564">
        <ele>170.19999694824</ele>
        <time>2014-06-06T10:28:08.000Z</time>
      </trkpt>
      <trkpt lat="48.68314" lon="1.73587">
        <ele>170.39999389648</ele>
        <time>2014-06-06T10:28:12.000Z</time>
      </trkpt>
      <trkpt lat="48.68305" lon="1.7362">
        <ele>170.80000305176</ele>
        <time>2014-06-06T10:28:18.000Z</time>
      </trkpt>
      <trkpt lat="48.68298" lon="1.73647">
        <ele>171</ele>
        <time>2014-06-06T10:28:23.000Z</time>
      </trkpt>
      <trkpt lat="48.68291" lon="1.7367">
        <ele>171.39999389648</ele>
        <time>2014-06-06T10:28:27.000Z</time>
      </trkpt>
      <trkpt lat="48.68289" lon="1.73675">
        <ele>171.60000610352</ele>
        <time>2014-06-06T10:28:28.000Z</time>
      </trkpt>
      <trkpt lat="48.68282" lon="1.73698">
        <ele>171.39999389648</ele>
        <time>2014-06-06T10:28:32.000Z</time>
      </trkpt>
      <trkpt lat="48.68273" lon="1.73726">
        <ele>171.19999694824</ele>
        <time>2014-06-06T10:28:37.000Z</time>
      </trkpt>
      <trkpt lat="48.68267" lon="1.73755">
        <ele>170.60000610352</ele>
        <time>2014-06-06T10:28:42.000Z</time>
      </trkpt>
      <trkpt lat="48.68258" lon="1.73782">
        <ele>170</ele>
        <time>2014-06-06T10:28:47.000Z</time>
      </trkpt>
      <trkpt lat="48.6825" lon="1.73811">
        <ele>169.39999389648</ele>
        <time>2014-06-06T10:28:52.000Z</time>
      </trkpt>
      <trkpt lat="48.68241" lon="1.73846">
        <ele>168</ele>
        <time>2014-06-06T10:28:58.000Z</time>
      </trkpt>
      <trkpt lat="48.6823" lon="1.73882">
        <ele>167</ele>
        <time>2014-06-06T10:29:05.000Z</time>
      </trkpt>
      <trkpt lat="48.68223" lon="1.73912">
        <ele>166.39999389648</ele>
        <time>2014-06-06T10:29:10.000Z</time>
      </trkpt>
      <trkpt lat="48.6822" lon="1.73937">
        <ele>166.19999694824</ele>
        <time>2014-06-06T10:29:14.000Z</time>
      </trkpt>
      <trkpt lat="48.68215" lon="1.73964">
        <ele>166.39999389648</ele>
        <time>2014-06-06T10:29:18.000Z</time>
      </trkpt>
      <trkpt lat="48.68212" lon="1.73975">
        <ele>166.39999389648</ele>
        <time>2014-06-06T10:29:20.000Z</time>
      </trkpt>
      <trkpt lat="48.68204" lon="1.73989">
        <ele>166.60000610352</ele>
        <time>2014-06-06T10:29:23.000Z</time>
      </trkpt>
      <trkpt lat="48.68192" lon="1.74024">
        <ele>166.39999389648</ele>
        <time>2014-06-06T10:29:29.000Z</time>
      </trkpt>
      <trkpt lat="48.68189" lon="1.74037">
        <ele>166.39999389648</ele>
        <time>2014-06-06T10:29:31.000Z</time>
      </trkpt>
      <trkpt lat="48.68181" lon="1.74067">
        <ele>166.19999694824</ele>
        <time>2014-06-06T10:29:36.000Z</time>
      </trkpt>
      <trkpt lat="48.68179" lon="1.74077">
        <ele>166.19999694824</ele>
        <time>2014-06-06T10:29:38.000Z</time>
      </trkpt>
      <trkpt lat="48.68175" lon="1.74087">
        <ele>166.19999694824</ele>
        <time>2014-06-06T10:29:40.000Z</time>
      </trkpt>
      <trkpt lat="48.68165" lon="1.74118">
        <ele>166.60000610352</ele>
        <time>2014-06-06T10:29:46.000Z</time>
      </trkpt>
      <trkpt lat="48.68155" lon="1.74145">
        <ele>167</ele>
        <time>2014-06-06T10:29:51.000Z</time>
      </trkpt>
      <trkpt lat="48.68148" lon="1.74166">
        <ele>167.39999389648</ele>
        <time>2014-06-06T10:29:55.000Z</time>
      </trkpt>
      <trkpt lat="48.68138" lon="1.74201">
        <ele>167.80000305176</ele>
        <time>2014-06-06T10:30:01.000Z</time>
      </trkpt>
      <trkpt lat="48.6813" lon="1.74224">
        <ele>168</ele>
        <time>2014-06-06T10:30:05.000Z</time>
      </trkpt>
      <trkpt lat="48.68119" lon="1.7426">
        <ele>168</ele>
        <time>2014-06-06T10:30:11.000Z</time>
      </trkpt>
      <trkpt lat="48.6811" lon="1.74291">
        <ele>168</ele>
        <time>2014-06-06T10:30:16.000Z</time>
      </trkpt>
      <trkpt lat="48.68106" lon="1.74304">
        <ele>168</ele>
        <time>2014-06-06T10:30:18.000Z</time>
      </trkpt>
      <trkpt lat="48.68094" lon="1.74346">
        <ele>168.80000305176</ele>
        <time>2014-06-06T10:30:25.000Z</time>
      </trkpt>
      <trkpt lat="48.68088" lon="1.74369">
        <ele>169.19999694824</ele>
        <time>2014-06-06T10:30:30.000Z</time>
      </trkpt>
      <trkpt lat="48.68085" lon="1.7438">
        <ele>169.60000610352</ele>
        <time>2014-06-06T10:30:35.000Z</time>
      </trkpt>
      <trkpt lat="48.68083" lon="1.74395">
        <ele>169.80000305176</ele>
        <time>2014-06-06T10:30:42.000Z</time>
      </trkpt>
      <trkpt lat="48.68078" lon="1.74411">
        <ele>170.19999694824</ele>
        <time>2014-06-06T10:30:48.000Z</time>
      </trkpt>
      <trkpt lat="48.68075" lon="1.74426">
        <ele>170</ele>
        <time>2014-06-06T10:30:55.000Z</time>
      </trkpt>
      <trkpt lat="48.68073" lon="1.74436">
        <ele>170</ele>
        <time>2014-06-06T10:31:01.000Z</time>
      </trkpt>
      <trkpt lat="48.68066" lon="1.74452">
        <ele>170.19999694824</ele>
        <time>2014-06-06T10:31:08.000Z</time>
      </trkpt>
      <trkpt lat="48.68066" lon="1.74455">
        <ele>170</ele>
        <time>2014-06-06T10:31:09.000Z</time>
      </trkpt>
      <trkpt lat="48.68065" lon="1.74467">
        <ele>169.39999389648</ele>
        <time>2014-06-06T10:31:14.000Z</time>
      </trkpt>
      <trkpt lat="48.6807" lon="1.74479">
        <ele>168.80000305176</ele>
        <time>2014-06-06T10:31:22.000Z</time>
      </trkpt>
      <trkpt lat="48.68072" lon="1.74482">
        <ele>168.60000610352</ele>
        <time>2014-06-06T10:31:24.000Z</time>
      </trkpt>
      <trkpt lat="48.68079" lon="1.7449">
        <ele>168.19999694824</ele>
        <time>2014-06-06T10:31:29.000Z</time>
      </trkpt>
      <trkpt lat="48.68084" lon="1.745">
        <ele>168</ele>
        <time>2014-06-06T10:31:34.000Z</time>
      </trkpt>
      <trkpt lat="48.68087" lon="1.74504">
        <ele>167.80000305176</ele>
        <time>2014-06-06T10:31:36.000Z</time>
      </trkpt>
      <trkpt lat="48.68092" lon="1.74515">
        <ele>167.39999389648</ele>
        <time>2014-06-06T10:31:42.000Z</time>
      </trkpt>
      <trkpt lat="48.68097" lon="1.74527">
        <ele>167.19999694824</ele>
        <time>2014-06-06T10:31:48.000Z</time>
      </trkpt>
      <trkpt lat="48.68098" lon="1.74534">
        <ele>167</ele>
        <time>2014-06-06T10:31:52.000Z</time>
      </trkpt>
      <trkpt lat="48.68102" lon="1.74548">
        <ele>166.60000610352</ele>
        <time>2014-06-06T10:31:58.000Z</time>
      </trkpt>
      <trkpt lat="48.68105" lon="1.74555">
        <ele>166.39999389648</ele>
        <time>2014-06-06T10:32:02.000Z</time>
      </trkpt>
      <trkpt lat="48.68113" lon="1.74569">
        <ele>166</ele>
        <time>2014-06-06T10:32:08.000Z</time>
      </trkpt>
      <trkpt lat="48.68118" lon="1.74578">
        <ele>165.80000305176</ele>
        <time>2014-06-06T10:32:12.000Z</time>
      </trkpt>
      <trkpt lat="48.6812" lon="1.74583">
        <ele>165.80000305176</ele>
        <time>2014-06-06T10:32:15.000Z</time>
      </trkpt>
      <trkpt lat="48.68126" lon="1.74594">
        <ele>165.80000305176</ele>
        <time>2014-06-06T10:32:21.000Z</time>
      </trkpt>
      <trkpt lat="48.68133" lon="1.7461">
        <ele>165.19999694824</ele>
        <time>2014-06-06T10:32:27.000Z</time>
      </trkpt>
      <trkpt lat="48.68135" lon="1.74618">
        <ele>165</ele>
        <time>2014-06-06T10:32:31.000Z</time>
      </trkpt>
      <trkpt lat="48.68138" lon="1.74626">
        <ele>164.80000305176</ele>
        <time>2014-06-06T10:32:35.000Z</time>
      </trkpt>
      <trkpt lat="48.68142" lon="1.74634">
        <ele>164.60000610352</ele>
        <time>2014-06-06T10:32:39.000Z</time>
      </trkpt>
      <trkpt lat="48.68144" lon="1.74639">
        <ele>164.60000610352</ele>
        <time>2014-06-06T10:32:43.000Z</time>
      </trkpt>
      <trkpt lat="48.68152" lon="1.74652">
        <ele>164.19999694824</ele>
        <time>2014-06-06T10:32:51.000Z</time>
      </trkpt>
      <trkpt lat="48.68152" lon="1.74656">
        <ele>164.19999694824</ele>
        <time>2014-06-06T10:32:53.000Z</time>
      </trkpt>
      <trkpt lat="48.68152" lon="1.74666">
        <ele>163.80000305176</ele>
        <time>2014-06-06T10:33:01.000Z</time>
      </trkpt>
      <trkpt lat="48.6815" lon="1.7466">
        <ele>164</ele>
        <time>2014-06-06T10:33:06.000Z</time>
      </trkpt>
      <trkpt lat="48.68149" lon="1.74658">
        <ele>164</ele>
        <time>2014-06-06T10:33:07.000Z</time>
      </trkpt>
      <trkpt lat="48.68146" lon="1.74646">
        <ele>164.39999389648</ele>
        <time>2014-06-06T10:33:13.000Z</time>
      </trkpt>
      <trkpt lat="48.68142" lon="1.74641">
        <ele>164.39999389648</ele>
        <time>2014-06-06T10:33:17.000Z</time>
      </trkpt>
      <trkpt lat="48.68135" lon="1.74624">
        <ele>164.80000305176</ele>
        <time>2014-06-06T10:33:24.000Z</time>
      </trkpt>
      <trkpt lat="48.68131" lon="1.74613">
        <ele>165.19999694824</ele>
        <time>2014-06-06T10:33:30.000Z</time>
      </trkpt>
      <trkpt lat="48.6813" lon="1.74611">
        <ele>165.19999694824</ele>
        <time>2014-06-06T10:33:31.000Z</time>
      </trkpt>
      <trkpt lat="48.68125" lon="1.74599">
        <ele>165.60000610352</ele>
        <time>2014-06-06T10:33:37.000Z</time>
      </trkpt>
      <trkpt lat="48.68119" lon="1.74587">
        <ele>165.80000305176</ele>
        <time>2014-06-06T10:33:44.000Z</time>
      </trkpt>
      <trkpt lat="48.68117" lon="1.74581">
        <ele>165.80000305176</ele>
        <time>2014-06-06T10:33:47.000Z</time>
      </trkpt>
      <trkpt lat="48.6811" lon="1.74566">
        <ele>166</ele>
        <time>2014-06-06T10:33:53.000Z</time>
      </trkpt>
      <trkpt lat="48.68105" lon="1.74556">
        <ele>166.39999389648</ele>
        <time>2014-06-06T10:33:58.000Z</time>
      </trkpt>
      <trkpt lat="48.68099" lon="1.74549">
        <ele>166.60000610352</ele>
        <time>2014-06-06T10:34:01.000Z</time>
      </trkpt>
      <trkpt lat="48.68097" lon="1.74541">
        <ele>166.80000305176</ele>
        <time>2014-06-06T10:34:05.000Z</time>
      </trkpt>
      <trkpt lat="48.68094" lon="1.74529">
        <ele>167.19999694824</ele>
        <time>2014-06-06T10:34:11.000Z</time>
      </trkpt>
      <trkpt lat="48.68088" lon="1.74518">
        <ele>167.39999389648</ele>
        <time>2014-06-06T10:34:16.000Z</time>
      </trkpt>
      <trkpt lat="48.68083" lon="1.74505">
        <ele>167.80000305176</ele>
        <time>2014-06-06T10:34:22.000Z</time>
      </trkpt>
      <trkpt lat="48.68074" lon="1.7449">
        <ele>168.19999694824</ele>
        <time>2014-06-06T10:34:30.000Z</time>
      </trkpt>
      <trkpt lat="48.68068" lon="1.74478">
        <ele>168.80000305176</ele>
        <time>2014-06-06T10:34:36.000Z</time>
      </trkpt>
      <trkpt lat="48.68068" lon="1.74473">
        <ele>169</ele>
        <time>2014-06-06T10:34:39.000Z</time>
      </trkpt>
      <trkpt lat="48.68064" lon="1.74473">
        <ele>169.19999694824</ele>
        <time>2014-06-06T10:34:44.000Z</time>
      </trkpt>
      <trkpt lat="48.6806" lon="1.74485">
        <ele>168.60000610352</ele>
        <time>2014-06-06T10:34:49.000Z</time>
      </trkpt>
      <trkpt lat="48.68053" lon="1.74501">
        <ele>168.19999694824</ele>
        <time>2014-06-06T10:34:56.000Z</time>
      </trkpt>
      <trkpt lat="48.68048" lon="1.74504">
        <ele>168.19999694824</ele>
        <time>2014-06-06T10:35:01.000Z</time>
      </trkpt>
      <trkpt lat="48.68044" lon="1.74516">
        <ele>168</ele>
        <time>2014-06-06T10:35:06.000Z</time>
      </trkpt>
      <trkpt lat="48.68041" lon="1.74526">
        <ele>167.80000305176</ele>
        <time>2014-06-06T10:35:11.000Z</time>
      </trkpt>
      <trkpt lat="48.6804" lon="1.74528">
        <ele>167.80000305176</ele>
        <time>2014-06-06T10:35:12.000Z</time>
      </trkpt>
      <trkpt lat="48.68037" lon="1.74536">
        <ele>167.60000610352</ele>
        <time>2014-06-06T10:35:17.000Z</time>
      </trkpt>
      <trkpt lat="48.68036" lon="1.74548">
        <ele>167.39999389648</ele>
        <time>2014-06-06T10:35:23.000Z</time>
      </trkpt>
      <trkpt lat="48.68033" lon="1.7456">
        <ele>167.19999694824</ele>
        <time>2014-06-06T10:35:30.000Z</time>
      </trkpt>
      <trkpt lat="48.68029" lon="1.74574">
        <ele>166.80000305176</ele>
        <time>2014-06-06T10:35:37.000Z</time>
      </trkpt>
      <trkpt lat="48.68023" lon="1.74589">
        <ele>166.39999389648</ele>
        <time>2014-06-06T10:35:43.000Z</time>
      </trkpt>
      <trkpt lat="48.68023" lon="1.74589">
        <ele>166.19999694824</ele>
        <time>2014-06-06T10:35:44.000Z</time>
      </trkpt>
      <trkpt lat="48.68023" lon="1.74598">
        <ele>166</ele>
        <time>2014-06-06T10:35:49.000Z</time>
      </trkpt>
      <trkpt lat="48.68022" lon="1.746">
        <ele>166</ele>
        <time>2014-06-06T10:35:50.000Z</time>
      </trkpt>
      <trkpt lat="48.68019" lon="1.74605">
        <ele>165.80000305176</ele>
        <time>2014-06-06T10:35:55.000Z</time>
      </trkpt>
      <trkpt lat="48.68017" lon="1.74616">
        <ele>165.39999389648</ele>
        <time>2014-06-06T10:36:01.000Z</time>
      </trkpt>
      <trkpt lat="48.68015" lon="1.74621">
        <ele>165.19999694824</ele>
        <time>2014-06-06T10:36:03.000Z</time>
      </trkpt>
      <trkpt lat="48.68009" lon="1.7463">
        <ele>165</ele>
        <time>2014-06-06T10:36:08.000Z</time>
      </trkpt>
      <trkpt lat="48.68005" lon="1.74636">
        <ele>164.80000305176</ele>
        <time>2014-06-06T10:36:12.000Z</time>
      </trkpt>
      <trkpt lat="48.67998" lon="1.74649">
        <ele>164.39999389648</ele>
        <time>2014-06-06T10:36:19.000Z</time>
      </trkpt>
      <trkpt lat="48.67997" lon="1.74656">
        <ele>164.19999694824</ele>
        <time>2014-06-06T10:36:23.000Z</time>
      </trkpt>
      <trkpt lat="48.67997" lon="1.7466">
        <ele>164</ele>
        <time>2014-06-06T10:36:25.000Z</time>
      </trkpt>
      <trkpt lat="48.67991" lon="1.74671">
        <ele>163.60000610352</ele>
        <time>2014-06-06T10:36:31.000Z</time>
      </trkpt>
      <trkpt lat="48.6799" lon="1.74674">
        <ele>163.39999389648</ele>
        <time>2014-06-06T10:36:32.000Z</time>
      </trkpt>
      <trkpt lat="48.67983" lon="1.74686">
        <ele>162.80000305176</ele>
        <time>2014-06-06T10:36:38.000Z</time>
      </trkpt>
      <trkpt lat="48.67978" lon="1.7469">
        <ele>162.80000305176</ele>
        <time>2014-06-06T10:36:42.000Z</time>
      </trkpt>
      <trkpt lat="48.67976" lon="1.74696">
        <ele>162.60000610352</ele>
        <time>2014-06-06T10:36:46.000Z</time>
      </trkpt>
      <trkpt lat="48.67968" lon="1.74707">
        <ele>162.39999389648</ele>
        <time>2014-06-06T10:36:54.000Z</time>
      </trkpt>
      <trkpt lat="48.67964" lon="1.74712">
        <ele>162.19999694824</ele>
        <time>2014-06-06T10:36:57.000Z</time>
      </trkpt>
      <trkpt lat="48.67956" lon="1.74728">
        <ele>161.80000305176</ele>
        <time>2014-06-06T10:37:06.000Z</time>
      </trkpt>
      <trkpt lat="48.67955" lon="1.7473">
        <ele>161.80000305176</ele>
        <time>2014-06-06T10:37:09.000Z</time>
      </trkpt>
      <trkpt lat="48.67954" lon="1.74733">
        <ele>161.80000305176</ele>
        <time>2014-06-06T10:37:12.000Z</time>
      </trkpt>
      <trkpt lat="48.6795" lon="1.7474">
        <ele>161.80000305176</ele>
        <time>2014-06-06T10:37:15.000Z</time>
      </trkpt>
      <trkpt lat="48.67949" lon="1.74741">
        <ele>161.80000305176</ele>
        <time>2014-06-06T10:37:19.000Z</time>
      </trkpt>
      <trkpt lat="48.67946" lon="1.74747">
        <ele>162</ele>
        <time>2014-06-06T10:37:33.000Z</time>
      </trkpt>
      <trkpt lat="48.67941" lon="1.74756">
        <ele>162.39999389648</ele>
        <time>2014-06-06T10:37:37.000Z</time>
      </trkpt>
      <trkpt lat="48.67938" lon="1.74762">
        <ele>162.60000610352</ele>
        <time>2014-06-06T10:37:40.000Z</time>
      </trkpt>
      <trkpt lat="48.67929" lon="1.74779">
        <ele>163.80000305176</ele>
        <time>2014-06-06T10:37:49.000Z</time>
      </trkpt>
      <trkpt lat="48.6792" lon="1.74791">
        <ele>165</ele>
        <time>2014-06-06T10:37:57.000Z</time>
      </trkpt>
      <trkpt lat="48.67916" lon="1.74797">
        <ele>165.60000610352</ele>
        <time>2014-06-06T10:38:03.000Z</time>
      </trkpt>
      <trkpt lat="48.67914" lon="1.74799">
        <ele>165.80000305176</ele>
        <time>2014-06-06T10:38:08.000Z</time>
      </trkpt>
      <trkpt lat="48.6791" lon="1.74804">
        <ele>166</ele>
        <time>2014-06-06T10:38:15.000Z</time>
      </trkpt>
      <trkpt lat="48.67908" lon="1.74807">
        <ele>166.19999694824</ele>
        <time>2014-06-06T10:38:17.000Z</time>
      </trkpt>
      <trkpt lat="48.67903" lon="1.74815">
        <ele>166.39999389648</ele>
        <time>2014-06-06T10:38:21.000Z</time>
      </trkpt>
      <trkpt lat="48.67898" lon="1.74832">
        <ele>166.80000305176</ele>
        <time>2014-06-06T10:38:29.000Z</time>
      </trkpt>
      <trkpt lat="48.67891" lon="1.74842">
        <ele>167.60000610352</ele>
        <time>2014-06-06T10:38:35.000Z</time>
      </trkpt>
      <trkpt lat="48.67885" lon="1.74855">
        <ele>168</ele>
        <time>2014-06-06T10:38:41.000Z</time>
      </trkpt>
      <trkpt lat="48.67884" lon="1.74857">
        <ele>167.80000305176</ele>
        <time>2014-06-06T10:38:42.000Z</time>
      </trkpt>
      <trkpt lat="48.67879" lon="1.74878">
        <ele>166.60000610352</ele>
        <time>2014-06-06T10:38:50.000Z</time>
      </trkpt>
      <trkpt lat="48.67877" lon="1.74893">
        <ele>165.60000610352</ele>
        <time>2014-06-06T10:38:57.000Z</time>
      </trkpt>
      <trkpt lat="48.6788" lon="1.74903">
        <ele>165</ele>
        <time>2014-06-06T10:39:03.000Z</time>
      </trkpt>
      <trkpt lat="48.6788" lon="1.74908">
        <ele>164.80000305176</ele>
        <time>2014-06-06T10:39:05.000Z</time>
      </trkpt>
      <trkpt lat="48.67882" lon="1.74919">
        <ele>164.39999389648</ele>
        <time>2014-06-06T10:39:10.000Z</time>
      </trkpt>
      <trkpt lat="48.67883" lon="1.74934">
        <ele>164</ele>
        <time>2014-06-06T10:39:17.000Z</time>
      </trkpt>
      <trkpt lat="48.67887" lon="1.7495">
        <ele>163</ele>
        <time>2014-06-06T10:39:24.000Z</time>
      </trkpt>
      <trkpt lat="48.67889" lon="1.74963">
        <ele>162.39999389648</ele>
        <time>2014-06-06T10:39:29.000Z</time>
      </trkpt>
      <trkpt lat="48.67893" lon="1.74974">
        <ele>161.80000305176</ele>
        <time>2014-06-06T10:39:34.000Z</time>
      </trkpt>
      <trkpt lat="48.67898" lon="1.74989">
        <ele>161</ele>
        <time>2014-06-06T10:39:40.000Z</time>
      </trkpt>
      <trkpt lat="48.67902" lon="1.74997">
        <ele>160.39999389648</ele>
        <time>2014-06-06T10:39:43.000Z</time>
      </trkpt>
      <trkpt lat="48.67903" lon="1.75015">
        <ele>159.19999694824</ele>
        <time>2014-06-06T10:39:50.000Z</time>
      </trkpt>
      <trkpt lat="48.67903" lon="1.75025">
        <ele>158.39999389648</ele>
        <time>2014-06-06T10:39:55.000Z</time>
      </trkpt>
      <trkpt lat="48.67906" lon="1.75038">
        <ele>157.60000610352</ele>
        <time>2014-06-06T10:40:00.000Z</time>
      </trkpt>
      <trkpt lat="48.67907" lon="1.75041">
        <ele>157.39999389648</ele>
        <time>2014-06-06T10:40:01.000Z</time>
      </trkpt>
      <trkpt lat="48.67907" lon="1.7506">
        <ele>156.60000610352</ele>
        <time>2014-06-06T10:40:08.000Z</time>
      </trkpt>
      <trkpt lat="48.67906" lon="1.75075">
        <ele>155.80000305176</ele>
        <time>2014-06-06T10:40:13.000Z</time>
      </trkpt>
      <trkpt lat="48.67901" lon="1.75107">
        <ele>154.80000305176</ele>
        <time>2014-06-06T10:40:24.000Z</time>
      </trkpt>
      <trkpt lat="48.67896" lon="1.75128">
        <ele>154.19999694824</ele>
        <time>2014-06-06T10:40:33.000Z</time>
      </trkpt>
      <trkpt lat="48.67891" lon="1.75144">
        <ele>154.19999694824</ele>
        <time>2014-06-06T10:40:40.000Z</time>
      </trkpt>
      <trkpt lat="48.6789" lon="1.75152">
        <ele>154.19999694824</ele>
        <time>2014-06-06T10:40:44.000Z</time>
      </trkpt>
      <trkpt lat="48.67888" lon="1.75176">
        <ele>153.39999389648</ele>
        <time>2014-06-06T10:40:53.000Z</time>
      </trkpt>
      <trkpt lat="48.67887" lon="1.75193">
        <ele>152.80000305176</ele>
        <time>2014-06-06T10:40:59.000Z</time>
      </trkpt>
      <trkpt lat="48.67885" lon="1.75212">
        <ele>152.39999389648</ele>
        <time>2014-06-06T10:41:06.000Z</time>
      </trkpt>
      <trkpt lat="48.67883" lon="1.75228">
        <ele>152.19999694824</ele>
        <time>2014-06-06T10:41:12.000Z</time>
      </trkpt>
      <trkpt lat="48.67883" lon="1.75232">
        <ele>152</ele>
        <time>2014-06-06T10:41:14.000Z</time>
      </trkpt>
      <trkpt lat="48.67886" lon="1.75241">
        <ele>151.80000305176</ele>
        <time>2014-06-06T10:41:19.000Z</time>
      </trkpt>
      <trkpt lat="48.67899" lon="1.75244">
        <ele>151.19999694824</ele>
        <time>2014-06-06T10:41:27.000Z</time>
      </trkpt>
      <trkpt lat="48.67911" lon="1.75243">
        <ele>150.80000305176</ele>
        <time>2014-06-06T10:41:32.000Z</time>
      </trkpt>
      <trkpt lat="48.67926" lon="1.7525">
        <ele>150.19999694824</ele>
        <time>2014-06-06T10:41:37.000Z</time>
      </trkpt>
      <trkpt lat="48.67944" lon="1.75267">
        <ele>149.60000610352</ele>
        <time>2014-06-06T10:41:45.000Z</time>
      </trkpt>
      <trkpt lat="48.67946" lon="1.75269">
        <ele>149.60000610352</ele>
        <time>2014-06-06T10:41:46.000Z</time>
      </trkpt>
      <trkpt lat="48.67955" lon="1.75277">
        <ele>149.39999389648</ele>
        <time>2014-06-06T10:41:52.000Z</time>
      </trkpt>
      <trkpt lat="48.67964" lon="1.75282">
        <ele>149.19999694824</ele>
        <time>2014-06-06T10:41:57.000Z</time>
      </trkpt>
      <trkpt lat="48.67968" lon="1.75286">
        <ele>149</ele>
        <time>2014-06-06T10:42:00.000Z</time>
      </trkpt>
      <trkpt lat="48.67983" lon="1.753">
        <ele>148.60000610352</ele>
        <time>2014-06-06T10:42:07.000Z</time>
      </trkpt>
      <trkpt lat="48.67998" lon="1.75311">
        <ele>148.39999389648</ele>
        <time>2014-06-06T10:42:12.000Z</time>
      </trkpt>
      <trkpt lat="48.68011" lon="1.75324">
        <ele>148.19999694824</ele>
        <time>2014-06-06T10:42:17.000Z</time>
      </trkpt>
      <trkpt lat="48.68033" lon="1.75339">
        <ele>148.39999389648</ele>
        <time>2014-06-06T10:42:23.000Z</time>
      </trkpt>
      <trkpt lat="48.68052" lon="1.75351">
        <ele>148.80000305176</ele>
        <time>2014-06-06T10:42:29.000Z</time>
      </trkpt>
      <trkpt lat="48.68064" lon="1.75364">
        <ele>149</ele>
        <time>2014-06-06T10:42:33.000Z</time>
      </trkpt>
      <trkpt lat="48.68064" lon="1.75386">
        <ele>149</ele>
        <time>2014-06-06T10:42:37.000Z</time>
      </trkpt>
      <trkpt lat="48.68058" lon="1.75421">
        <ele>149</ele>
        <time>2014-06-06T10:42:43.000Z</time>
      </trkpt>
      <trkpt lat="48.68053" lon="1.75457">
        <ele>148.39999389648</ele>
        <time>2014-06-06T10:42:50.000Z</time>
      </trkpt>
      <trkpt lat="48.68047" lon="1.75491">
        <ele>147.39999389648</ele>
        <time>2014-06-06T10:42:57.000Z</time>
      </trkpt>
      <trkpt lat="48.68047" lon="1.75519">
        <ele>147.19999694824</ele>
        <time>2014-06-06T10:43:03.000Z</time>
      </trkpt>
      <trkpt lat="48.68057" lon="1.75529">
        <ele>147.80000305176</ele>
        <time>2014-06-06T10:43:07.000Z</time>
      </trkpt>
      <trkpt lat="48.68075" lon="1.75544">
        <ele>148.60000610352</ele>
        <time>2014-06-06T10:43:13.000Z</time>
      </trkpt>
      <trkpt lat="48.68096" lon="1.75556">
        <ele>149.60000610352</ele>
        <time>2014-06-06T10:43:19.000Z</time>
      </trkpt>
      <trkpt lat="48.68113" lon="1.75572">
        <ele>150.19999694824</ele>
        <time>2014-06-06T10:43:25.000Z</time>
      </trkpt>
      <trkpt lat="48.68135" lon="1.75587">
        <ele>150.80000305176</ele>
        <time>2014-06-06T10:43:32.000Z</time>
      </trkpt>
      <trkpt lat="48.68154" lon="1.75597">
        <ele>151.19999694824</ele>
        <time>2014-06-06T10:43:38.000Z</time>
      </trkpt>
      <trkpt lat="48.68176" lon="1.75609">
        <ele>151.80000305176</ele>
        <time>2014-06-06T10:43:45.000Z</time>
      </trkpt>
      <trkpt lat="48.68191" lon="1.75614">
        <ele>152</ele>
        <time>2014-06-06T10:43:50.000Z</time>
      </trkpt>
      <trkpt lat="48.68205" lon="1.75619">
        <ele>152.19999694824</ele>
        <time>2014-06-06T10:43:55.000Z</time>
      </trkpt>
      <trkpt lat="48.68229" lon="1.75627">
        <ele>152.60000610352</ele>
        <time>2014-06-06T10:44:02.000Z</time>
      </trkpt>
      <trkpt lat="48.68249" lon="1.75631">
        <ele>152.80000305176</ele>
        <time>2014-06-06T10:44:08.000Z</time>
      </trkpt>
      <trkpt lat="48.68268" lon="1.75637">
        <ele>153</ele>
        <time>2014-06-06T10:44:14.000Z</time>
      </trkpt>
      <trkpt lat="48.68285" lon="1.75644">
        <ele>152.80000305176</ele>
        <time>2014-06-06T10:44:19.000Z</time>
      </trkpt>
      <trkpt lat="48.68306" lon="1.7565">
        <ele>152.60000610352</ele>
        <time>2014-06-06T10:44:25.000Z</time>
      </trkpt>
      <trkpt lat="48.68328" lon="1.75644">
        <ele>152.39999389648</ele>
        <time>2014-06-06T10:44:31.000Z</time>
      </trkpt>
      <trkpt lat="48.68342" lon="1.75632">
        <ele>152.19999694824</ele>
        <time>2014-06-06T10:44:35.000Z</time>
      </trkpt>
      <trkpt lat="48.68354" lon="1.75621">
        <ele>152.39999389648</ele>
        <time>2014-06-06T10:44:38.000Z</time>
      </trkpt>
      <trkpt lat="48.68369" lon="1.75611">
        <ele>153</ele>
        <time>2014-06-06T10:44:42.000Z</time>
      </trkpt>
      <trkpt lat="48.6838" lon="1.75606">
        <ele>153.19999694824</ele>
        <time>2014-06-06T10:44:45.000Z</time>
      </trkpt>
      <trkpt lat="48.68404" lon="1.75591">
        <ele>154</ele>
        <time>2014-06-06T10:44:52.000Z</time>
      </trkpt>
      <trkpt lat="48.68425" lon="1.75581">
        <ele>154.60000610352</ele>
        <time>2014-06-06T10:44:58.000Z</time>
      </trkpt>
      <trkpt lat="48.68444" lon="1.75572">
        <ele>155</ele>
        <time>2014-06-06T10:45:03.000Z</time>
      </trkpt>
      <trkpt lat="48.68464" lon="1.75561">
        <ele>155.80000305176</ele>
        <time>2014-06-06T10:45:09.000Z</time>
      </trkpt>
      <trkpt lat="48.68481" lon="1.75551">
        <ele>156.39999389648</ele>
        <time>2014-06-06T10:45:15.000Z</time>
      </trkpt>
      <trkpt lat="48.68498" lon="1.75543">
        <ele>156.80000305176</ele>
        <time>2014-06-06T10:45:19.000Z</time>
      </trkpt>
      <trkpt lat="48.68513" lon="1.75533">
        <ele>157</ele>
        <time>2014-06-06T10:45:23.000Z</time>
      </trkpt>
      <trkpt lat="48.68538" lon="1.75516">
        <ele>158.39999389648</ele>
        <time>2014-06-06T10:45:30.000Z</time>
      </trkpt>
      <trkpt lat="48.68547" lon="1.75512">
        <ele>159</ele>
        <time>2014-06-06T10:45:32.000Z</time>
      </trkpt>
      <trkpt lat="48.68566" lon="1.75505">
        <ele>159</ele>
        <time>2014-06-06T10:45:36.000Z</time>
      </trkpt>
      <trkpt lat="48.68592" lon="1.75489">
        <ele>159</ele>
        <time>2014-06-06T10:45:41.000Z</time>
      </trkpt>
      <trkpt lat="48.68614" lon="1.75478">
        <ele>159.19999694824</ele>
        <time>2014-06-06T10:45:45.000Z</time>
      </trkpt>
      <trkpt lat="48.68634" lon="1.75463">
        <ele>159.60000610352</ele>
        <time>2014-06-06T10:45:49.000Z</time>
      </trkpt>
      <trkpt lat="48.6866" lon="1.75451">
        <ele>159.60000610352</ele>
        <time>2014-06-06T10:45:54.000Z</time>
      </trkpt>
      <trkpt lat="48.68707" lon="1.75427">
        <ele>157.60000610352</ele>
        <time>2014-06-06T10:46:03.000Z</time>
      </trkpt>
      <trkpt lat="48.68712" lon="1.75424">
        <ele>157.39999389648</ele>
        <time>2014-06-06T10:46:04.000Z</time>
      </trkpt>
      <trkpt lat="48.68725" lon="1.75415">
        <ele>157.19999694824</ele>
        <time>2014-06-06T10:46:07.000Z</time>
      </trkpt>
      <trkpt lat="48.68748" lon="1.75405">
        <ele>157</ele>
        <time>2014-06-06T10:46:13.000Z</time>
      </trkpt>
      <trkpt lat="48.68752" lon="1.75404">
        <ele>157</ele>
        <time>2014-06-06T10:46:14.000Z</time>
      </trkpt>
      <trkpt lat="48.68777" lon="1.75391">
        <ele>156.80000305176</ele>
        <time>2014-06-06T10:46:21.000Z</time>
      </trkpt>
      <trkpt lat="48.68793" lon="1.75382">
        <ele>156.80000305176</ele>
        <time>2014-06-06T10:46:26.000Z</time>
      </trkpt>
      <trkpt lat="48.68809" lon="1.75373">
        <ele>156.80000305176</ele>
        <time>2014-06-06T10:46:30.000Z</time>
      </trkpt>
      <trkpt lat="48.68821" lon="1.75367">
        <ele>156.60000610352</ele>
        <time>2014-06-06T10:46:34.000Z</time>
      </trkpt>
      <trkpt lat="48.68835" lon="1.75361">
        <ele>156.39999389648</ele>
        <time>2014-06-06T10:46:38.000Z</time>
      </trkpt>
      <trkpt lat="48.68853" lon="1.75355">
        <ele>156.19999694824</ele>
        <time>2014-06-06T10:46:43.000Z</time>
      </trkpt>
      <trkpt lat="48.68872" lon="1.75344">
        <ele>155.60000610352</ele>
        <time>2014-06-06T10:46:49.000Z</time>
      </trkpt>
      <trkpt lat="48.68893" lon="1.7533">
        <ele>154.80000305176</ele>
        <time>2014-06-06T10:46:55.000Z</time>
      </trkpt>
      <trkpt lat="48.68913" lon="1.7532">
        <ele>154.19999694824</ele>
        <time>2014-06-06T10:47:01.000Z</time>
      </trkpt>
      <trkpt lat="48.68926" lon="1.75313">
        <ele>154</ele>
        <time>2014-06-06T10:47:05.000Z</time>
      </trkpt>
      <trkpt lat="48.68941" lon="1.75304">
        <ele>154</ele>
        <time>2014-06-06T10:47:10.000Z</time>
      </trkpt>
      <trkpt lat="48.68962" lon="1.75282">
        <ele>154.39999389648</ele>
        <time>2014-06-06T10:47:16.000Z</time>
      </trkpt>
      <trkpt lat="48.68978" lon="1.75273">
        <ele>154.80000305176</ele>
        <time>2014-06-06T10:47:21.000Z</time>
      </trkpt>
      <trkpt lat="48.68989" lon="1.75276">
        <ele>155.19999694824</ele>
        <time>2014-06-06T10:47:25.000Z</time>
      </trkpt>
      <trkpt lat="48.69" lon="1.75276">
        <ele>155.39999389648</ele>
        <time>2014-06-06T10:47:30.000Z</time>
      </trkpt>
      <trkpt lat="48.69009" lon="1.75277">
        <ele>155.60000610352</ele>
        <time>2014-06-06T10:47:35.000Z</time>
      </trkpt>
      <trkpt lat="48.69018" lon="1.75287">
        <ele>156.19999694824</ele>
        <time>2014-06-06T10:47:41.000Z</time>
      </trkpt>
      <trkpt lat="48.69022" lon="1.75289">
        <ele>156.19999694824</ele>
        <time>2014-06-06T10:47:43.000Z</time>
      </trkpt>
      <trkpt lat="48.6903" lon="1.75296">
        <ele>156.60000610352</ele>
        <time>2014-06-06T10:47:49.000Z</time>
      </trkpt>
      <trkpt lat="48.69038" lon="1.75302">
        <ele>156.80000305176</ele>
        <time>2014-06-06T10:47:54.000Z</time>
      </trkpt>
      <trkpt lat="48.6904" lon="1.75304">
        <ele>156.80000305176</ele>
        <time>2014-06-06T10:47:55.000Z</time>
      </trkpt>
      <trkpt lat="48.69044" lon="1.75309">
        <ele>157</ele>
        <time>2014-06-06T10:47:59.000Z</time>
      </trkpt>
      <trkpt lat="48.69047" lon="1.75313">
        <ele>157.19999694824</ele>
        <time>2014-06-06T10:48:02.000Z</time>
      </trkpt>
      <trkpt lat="48.69057" lon="1.75323">
        <ele>157.39999389648</ele>
        <time>2014-06-06T10:48:09.000Z</time>
      </trkpt>
      <trkpt lat="48.69069" lon="1.75334">
        <ele>157.19999694824</ele>
        <time>2014-06-06T10:48:17.000Z</time>
      </trkpt>
      <trkpt lat="48.69074" lon="1.75337">
        <ele>157.19999694824</ele>
        <time>2014-06-06T10:48:20.000Z</time>
      </trkpt>
      <trkpt lat="48.69078" lon="1.75342">
        <ele>157.19999694824</ele>
        <time>2014-06-06T10:48:24.000Z</time>
      </trkpt>
      <trkpt lat="48.69081" lon="1.75345">
        <ele>157.19999694824</ele>
        <time>2014-06-06T10:48:26.000Z</time>
      </trkpt>
      <trkpt lat="48.69086" lon="1.75351">
        <ele>157</ele>
        <time>2014-06-06T10:48:30.000Z</time>
      </trkpt>
      <trkpt lat="48.69099" lon="1.75362">
        <ele>157</ele>
        <time>2014-06-06T10:48:37.000Z</time>
      </trkpt>
      <trkpt lat="48.6911" lon="1.75373">
        <ele>157</ele>
        <time>2014-06-06T10:48:42.000Z</time>
      </trkpt>
      <trkpt lat="48.69118" lon="1.75383">
        <ele>156.80000305176</ele>
        <time>2014-06-06T10:48:46.000Z</time>
      </trkpt>
      <trkpt lat="48.69136" lon="1.75403">
        <ele>156.80000305176</ele>
        <time>2014-06-06T10:48:53.000Z</time>
      </trkpt>
      <trkpt lat="48.69154" lon="1.75419">
        <ele>157</ele>
        <time>2014-06-06T10:49:00.000Z</time>
      </trkpt>
      <trkpt lat="48.69166" lon="1.75429">
        <ele>157.19999694824</ele>
        <time>2014-06-06T10:49:05.000Z</time>
      </trkpt>
      <trkpt lat="48.69181" lon="1.75441">
        <ele>157.39999389648</ele>
        <time>2014-06-06T10:49:11.000Z</time>
      </trkpt>
      <trkpt lat="48.69187" lon="1.75448">
        <ele>157.39999389648</ele>
        <time>2014-06-06T10:49:14.000Z</time>
      </trkpt>
      <trkpt lat="48.69201" lon="1.75459">
        <ele>157.60000610352</ele>
        <time>2014-06-06T10:49:21.000Z</time>
      </trkpt>
      <trkpt lat="48.69209" lon="1.75466">
        <ele>157.60000610352</ele>
        <time>2014-06-06T10:49:26.000Z</time>
      </trkpt>
      <trkpt lat="48.69213" lon="1.7547">
        <ele>157.60000610352</ele>
        <time>2014-06-06T10:49:29.000Z</time>
      </trkpt>
      <trkpt lat="48.69225" lon="1.75481">
        <ele>157.60000610352</ele>
        <time>2014-06-06T10:49:37.000Z</time>
      </trkpt>
      <trkpt lat="48.69227" lon="1.75485">
        <ele>157.60000610352</ele>
        <time>2014-06-06T10:49:40.000Z</time>
      </trkpt>
      <trkpt lat="48.69237" lon="1.75493">
        <ele>157.60000610352</ele>
        <time>2014-06-06T10:49:46.000Z</time>
      </trkpt>
      <trkpt lat="48.69242" lon="1.755">
        <ele>157.60000610352</ele>
        <time>2014-06-06T10:49:51.000Z</time>
      </trkpt>
      <trkpt lat="48.6925" lon="1.75509">
        <ele>157.80000305176</ele>
        <time>2014-06-06T10:49:58.000Z</time>
      </trkpt>
      <trkpt lat="48.69261" lon="1.75517">
        <ele>157.80000305176</ele>
        <time>2014-06-06T10:50:04.000Z</time>
      </trkpt>
      <trkpt lat="48.69262" lon="1.75518">
        <ele>158</ele>
        <time>2014-06-06T10:50:05.000Z</time>
      </trkpt>
      <trkpt lat="48.6927" lon="1.75528">
        <ele>158</ele>
        <time>2014-06-06T10:50:12.000Z</time>
      </trkpt>
      <trkpt lat="48.69271" lon="1.75529">
        <ele>158</ele>
        <time>2014-06-06T10:50:13.000Z</time>
      </trkpt>
      <trkpt lat="48.69281" lon="1.75535">
        <ele>158.39999389648</ele>
        <time>2014-06-06T10:50:20.000Z</time>
      </trkpt>
      <trkpt lat="48.69288" lon="1.75542">
        <ele>158.60000610352</ele>
        <time>2014-06-06T10:50:25.000Z</time>
      </trkpt>
      <trkpt lat="48.69297" lon="1.75551">
        <ele>159</ele>
        <time>2014-06-06T10:50:31.000Z</time>
      </trkpt>
      <trkpt lat="48.69306" lon="1.75559">
        <ele>159.39999389648</ele>
        <time>2014-06-06T10:50:36.000Z</time>
      </trkpt>
      <trkpt lat="48.69314" lon="1.7557">
        <ele>159.60000610352</ele>
        <time>2014-06-06T10:50:43.000Z</time>
      </trkpt>
      <trkpt lat="48.69318" lon="1.75573">
        <ele>159.80000305176</ele>
        <time>2014-06-06T10:50:45.000Z</time>
      </trkpt>
      <trkpt lat="48.69322" lon="1.75579">
        <ele>160</ele>
        <time>2014-06-06T10:50:51.000Z</time>
      </trkpt>
      <trkpt lat="48.69322" lon="1.75579">
        <ele>160</ele>
        <time>2014-06-06T10:50:52.000Z</time>
      </trkpt>
      <trkpt lat="48.69325" lon="1.7558">
        <ele>160.19999694824</ele>
        <time>2014-06-06T10:50:56.000Z</time>
      </trkpt>
      <trkpt lat="48.69328" lon="1.75584">
        <ele>160.39999389648</ele>
        <time>2014-06-06T10:50:58.000Z</time>
      </trkpt>
      <trkpt lat="48.69331" lon="1.75587">
        <ele>160.60000610352</ele>
        <time>2014-06-06T10:51:01.000Z</time>
      </trkpt>
      <trkpt lat="48.69341" lon="1.75589">
        <ele>161</ele>
        <time>2014-06-06T10:51:07.000Z</time>
      </trkpt>
      <trkpt lat="48.69343" lon="1.7559">
        <ele>161</ele>
        <time>2014-06-06T10:51:11.000Z</time>
      </trkpt>
      <trkpt lat="48.69359" lon="1.7559">
        <ele>161.39999389648</ele>
        <time>2014-06-06T10:51:54.000Z</time>
      </trkpt>
      <trkpt lat="48.69361" lon="1.75591">
        <ele>161.39999389648</ele>
        <time>2014-06-06T10:51:55.000Z</time>
      </trkpt>
      <trkpt lat="48.69367" lon="1.75593">
        <ele>161.60000610352</ele>
        <time>2014-06-06T10:52:02.000Z</time>
      </trkpt>
      <trkpt lat="48.69367" lon="1.75593">
        <ele>161.60000610352</ele>
        <time>2014-06-06T10:52:03.000Z</time>
      </trkpt>
      <trkpt lat="48.6939" lon="1.75597">
        <ele>161.39999389648</ele>
        <time>2014-06-06T10:52:40.000Z</time>
      </trkpt>
      <trkpt lat="48.69399" lon="1.75596">
        <ele>161</ele>
        <time>2014-06-06T10:52:45.000Z</time>
      </trkpt>
      <trkpt lat="48.69402" lon="1.75598">
        <ele>161.19999694824</ele>
        <time>2014-06-06T10:52:47.000Z</time>
      </trkpt>
      <trkpt lat="48.69417" lon="1.75598">
        <ele>160.80000305176</ele>
        <time>2014-06-06T10:52:56.000Z</time>
      </trkpt>
      <trkpt lat="48.6943" lon="1.75596">
        <ele>160.39999389648</ele>
        <time>2014-06-06T10:53:04.000Z</time>
      </trkpt>
      <trkpt lat="48.6944" lon="1.75596">
        <ele>160</ele>
        <time>2014-06-06T10:53:10.000Z</time>
      </trkpt>
      <trkpt lat="48.69442" lon="1.75597">
        <ele>160</ele>
        <time>2014-06-06T10:53:11.000Z</time>
      </trkpt>
      <trkpt lat="48.6945" lon="1.75592">
        <ele>159.60000610352</ele>
        <time>2014-06-06T10:53:16.000Z</time>
      </trkpt>
      <trkpt lat="48.69463" lon="1.75589">
        <ele>158.80000305176</ele>
        <time>2014-06-06T10:53:23.000Z</time>
      </trkpt>
      <trkpt lat="48.69477" lon="1.75584">
        <ele>158.19999694824</ele>
        <time>2014-06-06T10:53:31.000Z</time>
      </trkpt>
      <trkpt lat="48.69487" lon="1.75579">
        <ele>157.60000610352</ele>
        <time>2014-06-06T10:53:37.000Z</time>
      </trkpt>
      <trkpt lat="48.695" lon="1.75571">
        <ele>156.80000305176</ele>
        <time>2014-06-06T10:53:45.000Z</time>
      </trkpt>
      <trkpt lat="48.69513" lon="1.75563">
        <ele>156.19999694824</ele>
        <time>2014-06-06T10:53:53.000Z</time>
      </trkpt>
      <trkpt lat="48.69523" lon="1.75559">
        <ele>155.80000305176</ele>
        <time>2014-06-06T10:53:59.000Z</time>
      </trkpt>
      <trkpt lat="48.69534" lon="1.75555">
        <ele>155.60000610352</ele>
        <time>2014-06-06T10:54:06.000Z</time>
      </trkpt>
      <trkpt lat="48.69537" lon="1.75554">
        <ele>155.60000610352</ele>
        <time>2014-06-06T10:54:08.000Z</time>
      </trkpt>
      <trkpt lat="48.69548" lon="1.75549">
        <ele>155.39999389648</ele>
        <time>2014-06-06T10:54:15.000Z</time>
      </trkpt>
      <trkpt lat="48.69564" lon="1.7554">
        <ele>155.19999694824</ele>
        <time>2014-06-06T10:54:25.000Z</time>
      </trkpt>
      <trkpt lat="48.69565" lon="1.75539">
        <ele>155.19999694824</ele>
        <time>2014-06-06T10:54:26.000Z</time>
      </trkpt>
      <trkpt lat="48.69574" lon="1.75537">
        <ele>155.19999694824</ele>
        <time>2014-06-06T10:54:32.000Z</time>
      </trkpt>
      <trkpt lat="48.69579" lon="1.75534">
        <ele>155.39999389648</ele>
        <time>2014-06-06T10:54:36.000Z</time>
      </trkpt>
      <trkpt lat="48.69587" lon="1.75529">
        <ele>155.60000610352</ele>
        <time>2014-06-06T10:54:42.000Z</time>
      </trkpt>
      <trkpt lat="48.69599" lon="1.75526">
        <ele>155.80000305176</ele>
        <time>2014-06-06T10:54:49.000Z</time>
      </trkpt>
      <trkpt lat="48.6961" lon="1.75524">
        <ele>156</ele>
        <time>2014-06-06T10:54:56.000Z</time>
      </trkpt>
      <trkpt lat="48.6962" lon="1.7552">
        <ele>156.19999694824</ele>
        <time>2014-06-06T10:55:03.000Z</time>
      </trkpt>
      <trkpt lat="48.69627" lon="1.75516">
        <ele>156.19999694824</ele>
        <time>2014-06-06T10:55:08.000Z</time>
      </trkpt>
      <trkpt lat="48.69638" lon="1.75511">
        <ele>156.80000305176</ele>
        <time>2014-06-06T10:55:15.000Z</time>
      </trkpt>
      <trkpt lat="48.69647" lon="1.75506">
        <ele>157.19999694824</ele>
        <time>2014-06-06T10:55:21.000Z</time>
      </trkpt>
      <trkpt lat="48.69659" lon="1.755">
        <ele>157.80000305176</ele>
        <time>2014-06-06T10:55:28.000Z</time>
      </trkpt>
      <trkpt lat="48.69662" lon="1.755">
        <ele>157.80000305176</ele>
        <time>2014-06-06T10:55:30.000Z</time>
      </trkpt>
      <trkpt lat="48.69672" lon="1.75497">
        <ele>158.19999694824</ele>
        <time>2014-06-06T10:55:36.000Z</time>
      </trkpt>
      <trkpt lat="48.69674" lon="1.75497">
        <ele>158.39999389648</ele>
        <time>2014-06-06T10:55:37.000Z</time>
      </trkpt>
      <trkpt lat="48.69685" lon="1.7549">
        <ele>158.80000305176</ele>
        <time>2014-06-06T10:55:45.000Z</time>
      </trkpt>
      <trkpt lat="48.69693" lon="1.75486">
        <ele>159.39999389648</ele>
        <time>2014-06-06T10:55:50.000Z</time>
      </trkpt>
      <trkpt lat="48.69701" lon="1.75483">
        <ele>160</ele>
        <time>2014-06-06T10:55:56.000Z</time>
      </trkpt>
      <trkpt lat="48.69713" lon="1.75477">
        <ele>160.80000305176</ele>
        <time>2014-06-06T10:56:04.000Z</time>
      </trkpt>
      <trkpt lat="48.69722" lon="1.75469">
        <ele>161.60000610352</ele>
        <time>2014-06-06T10:56:10.000Z</time>
      </trkpt>
      <trkpt lat="48.69725" lon="1.75466">
        <ele>161.80000305176</ele>
        <time>2014-06-06T10:56:12.000Z</time>
      </trkpt>
      <trkpt lat="48.69733" lon="1.75464">
        <ele>162.39999389648</ele>
        <time>2014-06-06T10:56:17.000Z</time>
      </trkpt>
      <trkpt lat="48.69743" lon="1.75458">
        <ele>163</ele>
        <time>2014-06-06T10:56:24.000Z</time>
      </trkpt>
      <trkpt lat="48.69754" lon="1.7545">
        <ele>164</ele>
        <time>2014-06-06T10:56:32.000Z</time>
      </trkpt>
      <trkpt lat="48.69762" lon="1.75444">
        <ele>164.80000305176</ele>
        <time>2014-06-06T10:56:38.000Z</time>
      </trkpt>
      <trkpt lat="48.69774" lon="1.75443">
        <ele>165.39999389648</ele>
        <time>2014-06-06T10:56:45.000Z</time>
      </trkpt>
      <trkpt lat="48.6978" lon="1.75438">
        <ele>165.80000305176</ele>
        <time>2014-06-06T10:56:49.000Z</time>
      </trkpt>
      <trkpt lat="48.69789" lon="1.75434">
        <ele>166.39999389648</ele>
        <time>2014-06-06T10:56:56.000Z</time>
      </trkpt>
      <trkpt lat="48.69797" lon="1.75433">
        <ele>167</ele>
        <time>2014-06-06T10:57:02.000Z</time>
      </trkpt>
      <trkpt lat="48.69805" lon="1.75425">
        <ele>167.39999389648</ele>
        <time>2014-06-06T10:57:08.000Z</time>
      </trkpt>
      <trkpt lat="48.6981" lon="1.75421">
        <ele>167.80000305176</ele>
        <time>2014-06-06T10:57:13.000Z</time>
      </trkpt>
      <trkpt lat="48.69816" lon="1.75415">
        <ele>168.19999694824</ele>
        <time>2014-06-06T10:57:18.000Z</time>
      </trkpt>
      <trkpt lat="48.69827" lon="1.75415">
        <ele>168.60000610352</ele>
        <time>2014-06-06T10:57:24.000Z</time>
      </trkpt>
      <trkpt lat="48.69831" lon="1.75414">
        <ele>168.80000305176</ele>
        <time>2014-06-06T10:57:27.000Z</time>
      </trkpt>
      <trkpt lat="48.69841" lon="1.75405">
        <ele>169.60000610352</ele>
        <time>2014-06-06T10:57:34.000Z</time>
      </trkpt>
      <trkpt lat="48.69852" lon="1.75399">
        <ele>170</ele>
        <time>2014-06-06T10:57:41.000Z</time>
      </trkpt>
      <trkpt lat="48.6986" lon="1.75393">
        <ele>170.39999389648</ele>
        <time>2014-06-06T10:57:46.000Z</time>
      </trkpt>
      <trkpt lat="48.69865" lon="1.7539">
        <ele>170.60000610352</ele>
        <time>2014-06-06T10:57:49.000Z</time>
      </trkpt>
      <trkpt lat="48.69872" lon="1.75378">
        <ele>171</ele>
        <time>2014-06-06T10:57:56.000Z</time>
      </trkpt>
      <trkpt lat="48.6988" lon="1.75374">
        <ele>171.39999389648</ele>
        <time>2014-06-06T10:58:01.000Z</time>
      </trkpt>
      <trkpt lat="48.69886" lon="1.75375">
        <ele>171.39999389648</ele>
        <time>2014-06-06T10:58:05.000Z</time>
      </trkpt>
      <trkpt lat="48.69894" lon="1.75372">
        <ele>171.80000305176</ele>
        <time>2014-06-06T10:58:09.000Z</time>
      </trkpt>
      <trkpt lat="48.69906" lon="1.75372">
        <ele>172</ele>
        <time>2014-06-06T10:58:16.000Z</time>
      </trkpt>
      <trkpt lat="48.69917" lon="1.7537">
        <ele>172.19999694824</ele>
        <time>2014-06-06T10:58:23.000Z</time>
      </trkpt>
      <trkpt lat="48.69921" lon="1.75366">
        <ele>172.19999694824</ele>
        <time>2014-06-06T10:58:25.000Z</time>
      </trkpt>
      <trkpt lat="48.69932" lon="1.7536">
        <ele>172.39999389648</ele>
        <time>2014-06-06T10:58:32.000Z</time>
      </trkpt>
      <trkpt lat="48.69939" lon="1.75358">
        <ele>172.39999389648</ele>
        <time>2014-06-06T10:58:36.000Z</time>
      </trkpt>
      <trkpt lat="48.69949" lon="1.75357">
        <ele>172</ele>
        <time>2014-06-06T10:58:40.000Z</time>
      </trkpt>
      <trkpt lat="48.69964" lon="1.75351">
        <ele>171.39999389648</ele>
        <time>2014-06-06T10:58:45.000Z</time>
      </trkpt>
      <trkpt lat="48.69983" lon="1.75338">
        <ele>171.60000610352</ele>
        <time>2014-06-06T10:58:50.000Z</time>
      </trkpt>
      <trkpt lat="48.69995" lon="1.75336">
        <ele>171.60000610352</ele>
        <time>2014-06-06T10:58:54.000Z</time>
      </trkpt>
      <trkpt lat="48.70011" lon="1.75328">
        <ele>171.80000305176</ele>
        <time>2014-06-06T10:58:58.000Z</time>
      </trkpt>
      <trkpt lat="48.70027" lon="1.75321">
        <ele>172</ele>
        <time>2014-06-06T10:59:02.000Z</time>
      </trkpt>
      <trkpt lat="48.70042" lon="1.75314">
        <ele>172.39999389648</ele>
        <time>2014-06-06T10:59:06.000Z</time>
      </trkpt>
      <trkpt lat="48.70055" lon="1.75306">
        <ele>172.80000305176</ele>
        <time>2014-06-06T10:59:10.000Z</time>
      </trkpt>
      <trkpt lat="48.70078" lon="1.75296">
        <ele>173.19999694824</ele>
        <time>2014-06-06T10:59:16.000Z</time>
      </trkpt>
      <trkpt lat="48.70094" lon="1.75288">
        <ele>173.60000610352</ele>
        <time>2014-06-06T10:59:20.000Z</time>
      </trkpt>
      <trkpt lat="48.70112" lon="1.75281">
        <ele>174.19999694824</ele>
        <time>2014-06-06T10:59:25.000Z</time>
      </trkpt>
      <trkpt lat="48.70131" lon="1.75273">
        <ele>175.19999694824</ele>
        <time>2014-06-06T10:59:31.000Z</time>
      </trkpt>
      <trkpt lat="48.7014" lon="1.75265">
        <ele>175.39999389648</ele>
        <time>2014-06-06T10:59:36.000Z</time>
      </trkpt>
      <trkpt lat="48.70149" lon="1.75257">
        <ele>175.60000610352</ele>
        <time>2014-06-06T10:59:42.000Z</time>
      </trkpt>
      <trkpt lat="48.70156" lon="1.75253">
        <ele>175.60000610352</ele>
        <time>2014-06-06T10:59:47.000Z</time>
      </trkpt>
      <trkpt lat="48.70161" lon="1.75252">
        <ele>175.60000610352</ele>
        <time>2014-06-06T10:59:51.000Z</time>
      </trkpt>
      <trkpt lat="48.70169" lon="1.75253">
        <ele>175.80000305176</ele>
        <time>2014-06-06T10:59:56.000Z</time>
      </trkpt>
      <trkpt lat="48.70174" lon="1.75252">
        <ele>175.80000305176</ele>
        <time>2014-06-06T10:59:59.000Z</time>
      </trkpt>
      <trkpt lat="48.70184" lon="1.75245">
        <ele>176</ele>
        <time>2014-06-06T11:00:06.000Z</time>
      </trkpt>
      <trkpt lat="48.70192" lon="1.75239">
        <ele>176.19999694824</ele>
        <time>2014-06-06T11:00:12.000Z</time>
      </trkpt>
      <trkpt lat="48.70203" lon="1.75233">
        <ele>176.80000305176</ele>
        <time>2014-06-06T11:00:19.000Z</time>
      </trkpt>
      <trkpt lat="48.7021" lon="1.75232">
        <ele>177.19999694824</ele>
        <time>2014-06-06T11:00:23.000Z</time>
      </trkpt>
      <trkpt lat="48.70219" lon="1.75231">
        <ele>177.60000610352</ele>
        <time>2014-06-06T11:00:29.000Z</time>
      </trkpt>
      <trkpt lat="48.70229" lon="1.7524">
        <ele>178</ele>
        <time>2014-06-06T11:00:35.000Z</time>
      </trkpt>
      <trkpt lat="48.70235" lon="1.75243">
        <ele>178.19999694824</ele>
        <time>2014-06-06T11:00:39.000Z</time>
      </trkpt>
      <trkpt lat="48.70242" lon="1.75248">
        <ele>178.60000610352</ele>
        <time>2014-06-06T11:00:43.000Z</time>
      </trkpt>
      <trkpt lat="48.7025" lon="1.75257">
        <ele>178.80000305176</ele>
        <time>2014-06-06T11:00:49.000Z</time>
      </trkpt>
      <trkpt lat="48.70251" lon="1.75258">
        <ele>178.80000305176</ele>
        <time>2014-06-06T11:00:50.000Z</time>
      </trkpt>
      <trkpt lat="48.70258" lon="1.75266">
        <ele>179</ele>
        <time>2014-06-06T11:00:55.000Z</time>
      </trkpt>
      <trkpt lat="48.70262" lon="1.75271">
        <ele>179.19999694824</ele>
        <time>2014-06-06T11:00:58.000Z</time>
      </trkpt>
      <trkpt lat="48.70272" lon="1.75281">
        <ele>179.60000610352</ele>
        <time>2014-06-06T11:01:05.000Z</time>
      </trkpt>
      <trkpt lat="48.70275" lon="1.75283">
        <ele>179.60000610352</ele>
        <time>2014-06-06T11:01:07.000Z</time>
      </trkpt>
      <trkpt lat="48.70284" lon="1.7529">
        <ele>179.60000610352</ele>
        <time>2014-06-06T11:01:14.000Z</time>
      </trkpt>
      <trkpt lat="48.70293" lon="1.75295">
        <ele>179.80000305176</ele>
        <time>2014-06-06T11:01:20.000Z</time>
      </trkpt>
      <trkpt lat="48.70298" lon="1.75301">
        <ele>180</ele>
        <time>2014-06-06T11:01:24.000Z</time>
      </trkpt>
      <trkpt lat="48.703" lon="1.75304">
        <ele>180</ele>
        <time>2014-06-06T11:01:26.000Z</time>
      </trkpt>
      <trkpt lat="48.70306" lon="1.75315">
        <ele>180</ele>
        <time>2014-06-06T11:01:32.000Z</time>
      </trkpt>
      <trkpt lat="48.70308" lon="1.75325">
        <ele>179.80000305176</ele>
        <time>2014-06-06T11:01:36.000Z</time>
      </trkpt>
      <trkpt lat="48.70308" lon="1.75327">
        <ele>180</ele>
        <time>2014-06-06T11:01:37.000Z</time>
      </trkpt>
      <trkpt lat="48.7031" lon="1.75331">
        <ele>180</ele>
        <time>2014-06-06T11:01:40.000Z</time>
      </trkpt>
      <trkpt lat="48.70316" lon="1.75344">
        <ele>180</ele>
        <time>2014-06-06T11:01:47.000Z</time>
      </trkpt>
      <trkpt lat="48.70317" lon="1.75346">
        <ele>180.19999694824</ele>
        <time>2014-06-06T11:01:48.000Z</time>
      </trkpt>
      <trkpt lat="48.7032" lon="1.75351">
        <ele>180.19999694824</ele>
        <time>2014-06-06T11:01:52.000Z</time>
      </trkpt>
      <trkpt lat="48.70332" lon="1.75353">
        <ele>180.39999389648</ele>
        <time>2014-06-06T11:01:59.000Z</time>
      </trkpt>
      <trkpt lat="48.70338" lon="1.75357">
        <ele>180.60000610352</ele>
        <time>2014-06-06T11:02:05.000Z</time>
      </trkpt>
      <trkpt lat="48.70347" lon="1.75367">
        <ele>180.80000305176</ele>
        <time>2014-06-06T11:02:11.000Z</time>
      </trkpt>
      <trkpt lat="48.70351" lon="1.75374">
        <ele>181</ele>
        <time>2014-06-06T11:02:15.000Z</time>
      </trkpt>
      <trkpt lat="48.70359" lon="1.75382">
        <ele>181</ele>
        <time>2014-06-06T11:02:21.000Z</time>
      </trkpt>
      <trkpt lat="48.70363" lon="1.75386">
        <ele>181.19999694824</ele>
        <time>2014-06-06T11:02:25.000Z</time>
      </trkpt>
      <trkpt lat="48.70371" lon="1.75394">
        <ele>181.19999694824</ele>
        <time>2014-06-06T11:02:32.000Z</time>
      </trkpt>
      <trkpt lat="48.70375" lon="1.75396">
        <ele>181.19999694824</ele>
        <time>2014-06-06T11:02:35.000Z</time>
      </trkpt>
      <trkpt lat="48.70384" lon="1.75402">
        <ele>181.39999389648</ele>
        <time>2014-06-06T11:02:42.000Z</time>
      </trkpt>
      <trkpt lat="48.70385" lon="1.75404">
        <ele>181.39999389648</ele>
        <time>2014-06-06T11:02:43.000Z</time>
      </trkpt>
      <trkpt lat="48.70388" lon="1.75406">
        <ele>181.39999389648</ele>
        <time>2014-06-06T11:02:46.000Z</time>
      </trkpt>
      <trkpt lat="48.70396" lon="1.75406">
        <ele>181.60000610352</ele>
        <time>2014-06-06T11:02:52.000Z</time>
      </trkpt>
      <trkpt lat="48.70399" lon="1.75407">
        <ele>181.60000610352</ele>
        <time>2014-06-06T11:02:54.000Z</time>
      </trkpt>
      <trkpt lat="48.70407" lon="1.75414">
        <ele>181.80000305176</ele>
        <time>2014-06-06T11:03:00.000Z</time>
      </trkpt>
      <trkpt lat="48.70413" lon="1.75418">
        <ele>182</ele>
        <time>2014-06-06T11:03:05.000Z</time>
      </trkpt>
      <trkpt lat="48.70417" lon="1.75421">
        <ele>182.19999694824</ele>
        <time>2014-06-06T11:03:08.000Z</time>
      </trkpt>
      <trkpt lat="48.70425" lon="1.75429">
        <ele>182.39999389648</ele>
        <time>2014-06-06T11:03:14.000Z</time>
      </trkpt>
      <trkpt lat="48.70426" lon="1.75429">
        <ele>182.39999389648</ele>
        <time>2014-06-06T11:03:15.000Z</time>
      </trkpt>
      <trkpt lat="48.70426" lon="1.7543">
        <ele>182.39999389648</ele>
        <time>2014-06-06T11:03:18.000Z</time>
      </trkpt>
      <trkpt lat="48.70432" lon="1.75436">
        <ele>182.60000610352</ele>
        <time>2014-06-06T11:03:27.000Z</time>
      </trkpt>
      <trkpt lat="48.70442" lon="1.75446">
        <ele>182.80000305176</ele>
        <time>2014-06-06T11:03:33.000Z</time>
      </trkpt>
      <trkpt lat="48.70444" lon="1.75445">
        <ele>182.80000305176</ele>
        <time>2014-06-06T11:03:35.000Z</time>
      </trkpt>
      <trkpt lat="48.70446" lon="1.75446">
        <ele>182.60000610352</ele>
        <time>2014-06-06T11:03:38.000Z</time>
      </trkpt>
      <trkpt lat="48.70459" lon="1.75457">
        <ele>182.39999389648</ele>
        <time>2014-06-06T11:03:48.000Z</time>
      </trkpt>
      <trkpt lat="48.70468" lon="1.75464">
        <ele>182.39999389648</ele>
        <time>2014-06-06T11:03:54.000Z</time>
      </trkpt>
      <trkpt lat="48.70476" lon="1.75473">
        <ele>182.19999694824</ele>
        <time>2014-06-06T11:04:00.000Z</time>
      </trkpt>
      <trkpt lat="48.70483" lon="1.7548">
        <ele>182.19999694824</ele>
        <time>2014-06-06T11:04:05.000Z</time>
      </trkpt>
      <trkpt lat="48.70489" lon="1.75487">
        <ele>182.19999694824</ele>
        <time>2014-06-06T11:04:10.000Z</time>
      </trkpt>
      <trkpt lat="48.70496" lon="1.75494">
        <ele>182.19999694824</ele>
        <time>2014-06-06T11:04:16.000Z</time>
      </trkpt>
      <trkpt lat="48.70502" lon="1.755">
        <ele>182.19999694824</ele>
        <time>2014-06-06T11:04:21.000Z</time>
      </trkpt>
      <trkpt lat="48.70509" lon="1.75506">
        <ele>182.19999694824</ele>
        <time>2014-06-06T11:04:26.000Z</time>
      </trkpt>
      <trkpt lat="48.70517" lon="1.75513">
        <ele>182.39999389648</ele>
        <time>2014-06-06T11:04:33.000Z</time>
      </trkpt>
      <trkpt lat="48.70519" lon="1.75515">
        <ele>182.39999389648</ele>
        <time>2014-06-06T11:04:35.000Z</time>
      </trkpt>
      <trkpt lat="48.70526" lon="1.75521">
        <ele>182.39999389648</ele>
        <time>2014-06-06T11:04:40.000Z</time>
      </trkpt>
      <trkpt lat="48.70529" lon="1.75524">
        <ele>182.60000610352</ele>
        <time>2014-06-06T11:04:42.000Z</time>
      </trkpt>
      <trkpt lat="48.70536" lon="1.75533">
        <ele>182.80000305176</ele>
        <time>2014-06-06T11:04:48.000Z</time>
      </trkpt>
      <trkpt lat="48.70544" lon="1.75542">
        <ele>183</ele>
        <time>2014-06-06T11:04:54.000Z</time>
      </trkpt>
      <trkpt lat="48.70545" lon="1.75545">
        <ele>183.19999694824</ele>
        <time>2014-06-06T11:04:56.000Z</time>
      </trkpt>
      <trkpt lat="48.70552" lon="1.75551">
        <ele>183.19999694824</ele>
        <time>2014-06-06T11:05:01.000Z</time>
      </trkpt>
      <trkpt lat="48.7056" lon="1.7556">
        <ele>183.60000610352</ele>
        <time>2014-06-06T11:05:08.000Z</time>
      </trkpt>
      <trkpt lat="48.7057" lon="1.75571">
        <ele>183.80000305176</ele>
        <time>2014-06-06T11:05:16.000Z</time>
      </trkpt>
      <trkpt lat="48.70577" lon="1.75577">
        <ele>183.80000305176</ele>
        <time>2014-06-06T11:05:22.000Z</time>
      </trkpt>
      <trkpt lat="48.70586" lon="1.75586">
        <ele>183.80000305176</ele>
        <time>2014-06-06T11:05:29.000Z</time>
      </trkpt>
      <trkpt lat="48.70594" lon="1.75598">
        <ele>183.80000305176</ele>
        <time>2014-06-06T11:05:37.000Z</time>
      </trkpt>
      <trkpt lat="48.70599" lon="1.75605">
        <ele>184</ele>
        <time>2014-06-06T11:05:43.000Z</time>
      </trkpt>
      <trkpt lat="48.70603" lon="1.75612">
        <ele>184</ele>
        <time>2014-06-06T11:05:47.000Z</time>
      </trkpt>
      <trkpt lat="48.70608" lon="1.75621">
        <ele>183.80000305176</ele>
        <time>2014-06-06T11:05:52.000Z</time>
      </trkpt>
      <trkpt lat="48.70616" lon="1.75631">
        <ele>182.80000305176</ele>
        <time>2014-06-06T11:05:59.000Z</time>
      </trkpt>
      <trkpt lat="48.70619" lon="1.75635">
        <ele>182.60000610352</ele>
        <time>2014-06-06T11:06:04.000Z</time>
      </trkpt>
      <trkpt lat="48.70619" lon="1.75637">
        <ele>182.80000305176</ele>
        <time>2014-06-06T11:06:13.000Z</time>
      </trkpt>
      <trkpt lat="48.70619" lon="1.75637">
        <ele>182.80000305176</ele>
        <time>2014-06-06T11:06:14.000Z</time>
      </trkpt>
      <trkpt lat="48.70625" lon="1.75645">
        <ele>182.19999694824</ele>
        <time>2014-06-06T11:06:44.000Z</time>
      </trkpt>
      <trkpt lat="48.70626" lon="1.75647">
        <ele>182</ele>
        <time>2014-06-06T11:06:45.000Z</time>
      </trkpt>
      <trkpt lat="48.70629" lon="1.75652">
        <ele>182</ele>
        <time>2014-06-06T11:06:48.000Z</time>
      </trkpt>
      <trkpt lat="48.70636" lon="1.75645">
        <ele>181</ele>
        <time>2014-06-06T11:06:54.000Z</time>
      </trkpt>
      <trkpt lat="48.70637" lon="1.75635">
        <ele>180.60000610352</ele>
        <time>2014-06-06T11:06:59.000Z</time>
      </trkpt>
      <trkpt lat="48.70639" lon="1.75624">
        <ele>180</ele>
        <time>2014-06-06T11:07:04.000Z</time>
      </trkpt>
      <trkpt lat="48.70641" lon="1.75618">
        <ele>179.60000610352</ele>
        <time>2014-06-06T11:07:08.000Z</time>
      </trkpt>
      <trkpt lat="48.70646" lon="1.75609">
        <ele>179</ele>
        <time>2014-06-06T11:07:13.000Z</time>
      </trkpt>
      <trkpt lat="48.70646" lon="1.75607">
        <ele>178.80000305176</ele>
        <time>2014-06-06T11:07:14.000Z</time>
      </trkpt>
      <trkpt lat="48.70652" lon="1.75595">
        <ele>178.39999389648</ele>
        <time>2014-06-06T11:07:21.000Z</time>
      </trkpt>
      <trkpt lat="48.70656" lon="1.75587">
        <ele>178</ele>
        <time>2014-06-06T11:07:26.000Z</time>
      </trkpt>
      <trkpt lat="48.70657" lon="1.75586">
        <ele>177.80000305176</ele>
        <time>2014-06-06T11:07:27.000Z</time>
      </trkpt>
      <trkpt lat="48.7066" lon="1.75579">
        <ele>177.60000610352</ele>
        <time>2014-06-06T11:07:32.000Z</time>
      </trkpt>
      <trkpt lat="48.70661" lon="1.75577">
        <ele>177.39999389648</ele>
        <time>2014-06-06T11:07:33.000Z</time>
      </trkpt>
      <trkpt lat="48.70665" lon="1.75566">
        <ele>176.60000610352</ele>
        <time>2014-06-06T11:07:39.000Z</time>
      </trkpt>
      <trkpt lat="48.70671" lon="1.75559">
        <ele>175.19999694824</ele>
        <time>2014-06-06T11:07:45.000Z</time>
      </trkpt>
      <trkpt lat="48.70673" lon="1.75555">
        <ele>174.80000305176</ele>
        <time>2014-06-06T11:07:47.000Z</time>
      </trkpt>
      <trkpt lat="48.70675" lon="1.7555">
        <ele>174.60000610352</ele>
        <time>2014-06-06T11:07:50.000Z</time>
      </trkpt>
      <trkpt lat="48.7068" lon="1.75539">
        <ele>174.39999389648</ele>
        <time>2014-06-06T11:07:57.000Z</time>
      </trkpt>
      <trkpt lat="48.70685" lon="1.75526">
        <ele>174</ele>
        <time>2014-06-06T11:08:04.000Z</time>
      </trkpt>
      <trkpt lat="48.70689" lon="1.75512">
        <ele>173.39999389648</ele>
        <time>2014-06-06T11:08:13.000Z</time>
      </trkpt>
      <trkpt lat="48.70689" lon="1.75512">
        <ele>173.39999389648</ele>
        <time>2014-06-06T11:08:14.000Z</time>
      </trkpt>
      <trkpt lat="48.70694" lon="1.755">
        <ele>173</ele>
        <time>2014-06-06T11:08:24.000Z</time>
      </trkpt>
      <trkpt lat="48.70697" lon="1.75497">
        <ele>172.80000305176</ele>
        <time>2014-06-06T11:08:28.000Z</time>
      </trkpt>
      <trkpt lat="48.70697" lon="1.75494">
        <ele>172.80000305176</ele>
        <time>2014-06-06T11:08:31.000Z</time>
      </trkpt>
    </trkseg>
  </trk>
</gpx>